Sasaki, Shun (2026): Radiosonde measurements from station Abashiri (2025-11) [dataset]. Japan Meteorological Agency, Tokyo, PANGAEA, https://doi.org/10.1594/PANGAEA.992667
Always quote citation above when using data! You can download the citation in several formats below.
Published: 2026-02-26 • DOI registered: 2026-03-27
Other version:
Sasaki, Shun (2026): BSRN Station-to-archive file for station Abashiri (2025-11) [dataset]. ftp://ftp.bsrn.awi.de/abs/abs1125.dat.gz
Project(s):
Coverage:
Latitude: 44.017800 * Longitude: 144.279700
Date/Time Start: 2025-11-01T00:00:00 * Date/Time End: 2025-11-30T23:59:00
Minimum ALTITUDE: 18 m * Maximum ALTITUDE: 26863 m
Event(s):
ABS (Abashiri) * Latitude: 44.017800 * Longitude: 144.279700 * Date/Time: 2021-03-01T00:00:00 * Elevation: 38.0 m * Station info: Abashiri.pdf * Location: Japan * Method/Device: Monitoring station (MONS) * Comment: BSRN station no: 86; Surface type: asphalt; Topography type: flat, rural; Horizon: doi:10.1594/PANGAEA.947000; Station scientist: SASAKI Shun (rrc-jma@met.kishou.go.jp)
Parameter(s):
| # | Name | Short Name | Unit | Principal Investigator | Method/Device | Comment |
|---|---|---|---|---|---|---|
| 1 | DATE/TIME | Date/Time | Sasaki, Shun | Geocode | ||
| 2 | ALTITUDE | Altitude | m | Sasaki, Shun | Geocode | |
| 3 | Pressure, at given altitude | PPPP | hPa | Sasaki, Shun | Radiosonde, Meisei, iMS | |
| 4 | Temperature, air | TTT | °C | Sasaki, Shun | Radiosonde, Meisei, iMS | |
| 5 | Dew/frost point | TdTdTd | °C | Sasaki, Shun | Radiosonde, Meisei, iMS | |
| 6 | Wind direction | dd | deg | Sasaki, Shun | Radiosonde, Meisei, iMS | |
| 7 | Wind speed | ff | m/s | Sasaki, Shun | Radiosonde, Meisei, iMS |
License:
Status:
Curation Level: Enhanced curation (CurationLevelC)
Size:
24089 data points
Data
| 1 Date/Time | 2 Altitude [m] | 3 PPPP [hPa] | 4 TTT [°C] | 5 TdTdTd [°C] | 6 dd [deg] | 7 ff [m/s] |
|---|---|---|---|---|---|---|
| 2025-11-01T00:00 | 6647 | 428 | 141 | 23 | ||
| 2025-11-01T00:01 | 6836 | 417 | -24.1 | -25.4 | ||
| 2025-11-01T00:01 | 6876 | 415 | 137 | 25 | ||
| 2025-11-01T00:02 | 7133 | 400 | 144 | 29 | ||
| 2025-11-01T00:03 | 7363 | 388 | 143 | 33 | ||
| 2025-11-01T00:03 | 7373 | 387 | -26.7 | -28.0 | ||
| 2025-11-01T00:04 | 7649 | 373 | 146 | 35 | ||
| 2025-11-01T00:05 | 7936 | 358 | 147 | 35 | ||
| 2025-11-01T00:06 | 8246 | 343 | 149 | 32 | ||
| 2025-11-01T00:06 | 8338 | 338 | -34.5 | -35.6 | 148 | 34 |
| 2025-11-01T11:30 | 18 | 1000 | 8.9 | 6.3 | 310 | 5 |
| 2025-11-01T11:30 | 24 | 999 | 8.8 | 5.9 | 303 | 2 |
| 2025-11-01T11:30 | 37 | 998 | 225 | 4 | ||
| 2025-11-01T11:30 | 69 | 994 | 308 | 7 | ||
| 2025-11-01T11:30 | 124 | 987 | 327 | 11 | ||
| 2025-11-01T11:31 | 393 | 955 | 5.5 | 4.0 | ||
| 2025-11-01T11:31 | 473 | 946 | 328 | 12 | ||
| 2025-11-01T11:32 | 783 | 911 | 2.7 | 2.0 | ||
| 2025-11-01T11:32 | 816 | 907 | 315 | 12 | ||
| 2025-11-01T11:33 | 1035 | 882 | 1.5 | 0.5 | ||
| 2025-11-01T11:33 | 1113 | 874 | 2.2 | 0.7 | ||
| 2025-11-01T11:33 | 1125 | 873 | 333 | 12 | ||
| 2025-11-01T11:34 | 1480 | 835 | 350 | 11 | ||
| 2025-11-01T11:35 | 1622 | 821 | -0.5 | -1.3 | ||
| 2025-11-01T11:35 | 1869 | 795 | 347 | 10 | ||
| 2025-11-01T11:36 | 2071 | 775 | -2.2 | -3.5 | ||
| 2025-11-01T11:36 | 2142 | 769 | 351 | 10 | ||
| 2025-11-01T11:36 | 2185 | 764 | -1.7 | -3.9 | ||
| 2025-11-01T11:36 | 2251 | 758 | -1.9 | -4.6 | ||
| 2025-11-01T11:36 | 2292 | 754 | -1.4 | -4.9 | ||
| 2025-11-01T11:37 | 2460 | 738 | -1.8 | -6.0 | ||
| 2025-11-01T11:37 | 2488 | 736 | 309 | 9 | ||
| 2025-11-01T11:37 | 2675 | 719 | 288 | 10 | ||
| 2025-11-01T11:38 | 2704 | 716 | -3.1 | -7.4 | ||
| 2025-11-01T11:38 | 3020 | 688 | 277 | 12 | ||
| 2025-11-01T11:39 | 3216 | 671 | -7.8 | -9.7 | ||
| 2025-11-01T11:39 | 3286 | 665 | -7.3 | -10.6 | 272 | 14 |
| 2025-11-01T11:40 | 3630 | 636 | 275 | 15 | ||
| 2025-11-01T11:40 | 3692 | 631 | -10.6 | -12.9 | ||
| 2025-11-01T11:41 | 3850 | 618 | -11.2 | -14.9 | ||
| 2025-11-01T11:41 | 3963 | 609 | 279 | 14 | ||
| 2025-11-01T11:41 | 4009 | 605 | -12.6 | -16.3 | ||
| 2025-11-01T11:41 | 4044 | 603 | -12.2 | -18.6 | ||
| 2025-11-01T11:42 | 4245 | 587 | -12.9 | -22.1 | ||
| 2025-11-01T11:42 | 4250 | 587 | 281 | 15 | ||
| 2025-11-01T11:43 | 4374 | 577 | 270 | 16 | ||
| 2025-11-01T11:43 | 4564 | 563 | -15.3 | -23.6 | ||
| 2025-11-01T11:43 | 4595 | 561 | 271 | 16 | ||
| 2025-11-01T11:44 | 4728 | 551 | 273 | 10 | ||
| 2025-11-01T11:44 | 4734 | 550 | -15.9 | -28.2 | ||
| 2025-11-01T11:44 | 4889 | 539 | 273 | 10 | ||
| 2025-11-01T11:45 | 5010 | 530 | 276 | 9 | ||
| 2025-11-01T11:45 | 5140 | 521 | -19.7 | -27.7 | ||
| 2025-11-01T11:45 | 5222 | 516 | -20.3 | -29.2 | ||
| 2025-11-01T11:46 | 5424 | 502 | 287 | 13 | ||
| 2025-11-01T11:47 | 5847 | 473 | -25.1 | -34.3 | ||
| 2025-11-01T11:47 | 5861 | 472 | 261 | 13 | ||
| 2025-11-01T11:47 | 6117 | 456 | 261 | 15 | ||
| 2025-11-01T11:47 | 6210 | 450 | -28.5 | -34.7 | ||
| 2025-11-01T11:48 | 6324 | 443 | -29.4 | -36.0 | ||
| 2025-11-01T11:48 | 6395 | 438 | 251 | 15 | ||
| 2025-11-01T11:49 | 6669 | 422 | -32.5 | -36.1 | ||
| 2025-11-01T11:49 | 6753 | 417 | 255 | 17 | ||
| 2025-11-01T11:49 | 6781 | 415 | -33.4 | -37.9 | ||
| 2025-11-01T11:50 | 7098 | 397 | 254 | 17 | ||
| 2025-11-01T11:50 | 7197 | 391 | -37.3 | -40.1 | ||
| 2025-11-01T11:50 | 7452 | 377 | -39.7 | -41.5 | ||
| 2025-11-01T11:51 | 7495 | 375 | -40.0 | -42.6 | 253 | 21 |
| 2025-11-01T11:51 | 7785 | 359 | 246 | 23 | ||
| 2025-11-01T11:52 | 8153 | 340 | 246 | 23 | ||
| 2025-11-01T11:53 | 8324 | 331 | 248 | 26 | ||
| 2025-11-01T11:53 | 8535 | 321 | -49.5 | |||
| 2025-11-01T11:54 | 8608 | 317 | 243 | 22 | ||
| 2025-11-01T11:54 | 8769 | 309 | -51.3 | |||
| 2025-11-01T11:54 | 8902 | 303 | 237 | 23 | ||
| 2025-11-01T11:55 | 8953 | 301 | -52.1 | |||
| 2025-11-01T11:55 | 9126 | 293 | 238 | 29 | ||
| 2025-11-01T11:55 | 9160 | 291 | -51.8 | |||
| 2025-11-01T11:55 | 9266 | 287 | 240 | 25 | ||
| 2025-11-01T11:56 | 9435 | 279 | -51.8 | |||
| 2025-11-01T11:56 | 9529 | 275 | -50.2 | |||
| 2025-11-01T11:56 | 9546 | 274 | 223 | 27 | ||
| 2025-11-01T11:57 | 9725 | 267 | 236 | 27 | ||
| 2025-11-01T11:57 | 9950 | 258 | -51.3 | |||
| 2025-11-01T11:58 | 10050 | 254 | -49.5 | |||
| 2025-11-01T11:58 | 10094 | 252 | 230 | 30 | ||
| 2025-11-01T11:58 | 10282 | 245 | -50.7 | |||
| 2025-11-01T11:59 | 10485 | 238 | 236 | 34 | ||
| 2025-11-01T11:59 | 10585 | 234 | -50.2 | |||
| 2025-11-01T11:59 | 10701 | 230 | 236 | 31 | ||
| 2025-11-01T12:00 | 11097 | 216 | 235 | 39 | ||
| 2025-11-01T12:01 | 11433 | 206 | -50.5 | |||
| 2025-11-01T12:01 | 11444 | 205 | 242 | 32 | ||
| 2025-11-01T12:02 | 11692 | 197 | -51.6 | |||
| 2025-11-01T12:02 | 11802 | 194 | 232 | 35 | ||
| 2025-11-01T12:03 | 12089 | 186 | -50.7 | |||
| 2025-11-01T12:03 | 12160 | 184 | 232 | 39 | ||
| 2025-11-01T12:04 | 12262 | 181 | -50.5 | |||
| 2025-11-01T12:04 | 12524 | 174 | 232 | 41 | ||
| 2025-11-01T12:04 | 12568 | 173 | -50.5 | |||
| 2025-11-01T12:05 | 12812 | 166 | -51.5 | |||
| 2025-11-01T12:05 | 12892 | 164 | 231 | 42 | ||
| 2025-11-01T12:06 | 13097 | 159 | -52.6 | |||
| 2025-11-01T12:06 | 13249 | 155 | 235 | 43 | ||
| 2025-11-01T12:07 | 13561 | 148 | 239 | 41 | ||
| 2025-11-01T12:08 | 13647 | 146 | -52.3 | |||
| 2025-11-01T12:08 | 13850 | 142 | 235 | 34 | ||
| 2025-11-01T12:09 | 14171 | 135 | 231 | 33 | ||
| 2025-11-01T12:10 | 14339 | 131 | -52.4 | |||
| 2025-11-01T12:10 | 14529 | 127 | 240 | 34 | ||
| 2025-11-01T12:10 | 14580 | 126 | -53.2 | |||
| 2025-11-01T12:11 | 14801 | 122 | 236 | 28 | ||
| 2025-11-01T12:12 | 15159 | 115 | 227 | 31 | ||
| 2025-11-01T12:12 | 15299 | 113 | -54.9 | |||
| 2025-11-01T12:12 | 15345 | 112 | 233 | 31 | ||
| 2025-11-01T12:13 | 15498 | 110 | -54.9 | |||
| 2025-11-01T12:13 | 15650 | 107 | 242 | 22 | ||
| 2025-11-01T12:14 | 15768 | 105 | -55.5 | |||
| 2025-11-01T12:14 | 15994 | 101 | 231 | 32 | ||
| 2025-11-01T12:15 | 16040 | 101 | -56.2 | |||
| 2025-11-01T12:15 | 16191 | 98 | -55.9 | |||
| 2025-11-01T12:15 | 16302 | 97 | 226 | 32 | ||
| 2025-11-01T12:16 | 16527 | 93 | 225 | 32 | ||
| 2025-11-01T12:16 | 16575 | 92 | -57.4 | |||
| 2025-11-01T12:17 | 16863 | 88 | 233 | 32 | ||
| 2025-11-01T12:17 | 16985 | 87 | -55.8 | |||
| 2025-11-01T12:18 | 17202 | 84 | 227 | 33 | ||
| 2025-11-01T12:19 | 17544 | 79 | -55.9 | |||
| 2025-11-01T12:19 | 17553 | 79 | 220 | 34 | ||
| 2025-11-01T12:19 | 17738 | 77 | -54.5 | |||
| 2025-11-01T12:20 | 17916 | 75 | 218 | 39 | ||
| 2025-11-01T12:21 | 18257 | 71 | 230 | 36 | ||
| 2025-11-01T12:21 | 18302 | 70 | -55.9 | |||
| 2025-11-01T12:22 | 18639 | 67 | 235 | 29 | ||
| 2025-11-01T12:22 | 18852 | 65 | -53.2 | |||
| 2025-11-01T12:23 | 19066 | 63 | 238 | 26 | ||
| 2025-11-01T12:23 | 19180 | 61 | -52.7 | |||
| 2025-11-01T12:23 | 19266 | 61 | 239 | 27 | ||
| 2025-11-01T12:23 | 19339 | 60 | -51.8 | |||
| 2025-11-01T12:24 | 19671 | 57 | 235 | 35 | ||
| 2025-11-01T12:25 | 19796 | 56 | -53.0 | |||
| 2025-11-01T12:25 | 20090 | 53 | 236 | 34 | ||
| 2025-11-01T12:26 | 20268 | 52 | -55.2 | 239 | 33 | |
| 2025-11-01T23:30 | 18 | 1001 | 5.8 | 4.3 | 10 | 1 |
| 2025-11-01T23:30 | 23 | 1001 | 5.7 | 3.9 | 0 | 0 |
| 2025-11-01T23:30 | 107 | 990 | 4.5 | 3.0 | ||
| 2025-11-01T23:31 | 268 | 971 | 3.7 | 2.4 | ||
| 2025-11-01T23:31 | 354 | 961 | 37 | 3 | ||
| 2025-11-01T23:31 | 490 | 945 | 2.1 | 1.5 | ||
| 2025-11-01T23:32 | 525 | 940 | 271 | 3 | ||
| 2025-11-01T23:32 | 599 | 932 | 3.2 | 2.3 | ||
| 2025-11-01T23:32 | 708 | 920 | 217 | 1 | ||
| 2025-11-01T23:32 | 753 | 914 | 3.4 | 2.8 | ||
| 2025-11-01T23:32 | 803 | 909 | 4.1 | 3.2 | ||
| 2025-11-01T23:33 | 1035 | 883 | 268 | 3 | ||
| 2025-11-01T23:33 | 1142 | 872 | 245 | 1 | ||
| 2025-11-01T23:33 | 1174 | 868 | 1.7 | 1.4 | ||
| 2025-11-01T23:34 | 1305 | 854 | 220 | 4 | ||
| 2025-11-01T23:34 | 1386 | 846 | 206 | 6 | ||
| 2025-11-01T23:35 | 1546 | 829 | 0.2 | -0.4 | ||
| 2025-11-01T23:35 | 1648 | 819 | 241 | 8 | ||
| 2025-11-01T23:36 | 1814 | 802 | 243 | 10 | ||
| 2025-11-01T23:36 | 1925 | 791 | -2.3 | -2.9 | ||
| 2025-11-01T23:36 | 1952 | 788 | 252 | 8 | ||
| 2025-11-01T23:36 | 1957 | 787 | -2.3 | -2.7 | ||
| 2025-11-01T23:37 | 2289 | 755 | 280 | 8 | ||
| 2025-11-01T23:38 | 2502 | 735 | -6.0 | -7.5 | ||
| 2025-11-01T23:38 | 2597 | 726 | -6.9 | -11.6 | ||
| 2025-11-01T23:38 | 2618 | 724 | 271 | 7 | ||
| 2025-11-01T23:38 | 2639 | 722 | -7.2 | -13.6 | ||
| 2025-11-01T23:38 | 2681 | 718 | -7.6 | -17.8 | ||
| 2025-11-01T23:39 | 2772 | 710 | -7.2 | -16.1 | ||
| 2025-11-01T23:39 | 2901 | 698 | -7.5 | -16.4 | ||
| 2025-11-01T23:39 | 2946 | 694 | 269 | 8 | ||
| 2025-11-01T23:39 | 2980 | 691 | -7.9 | -14.1 | ||
| 2025-11-01T23:39 | 3094 | 681 | -8.4 | -16.7 | ||
| 2025-11-01T23:40 | 3166 | 675 | -8.8 | -18.3 | ||
| 2025-11-01T23:40 | 3211 | 671 | -8.1 | -19.0 | ||
| 2025-11-01T23:40 | 3285 | 664 | 250 | 8 | ||
| 2025-11-01T23:40 | 3432 | 652 | -9.7 | -19.4 | ||
| 2025-11-01T23:41 | 3541 | 643 | -10.3 | -19.7 | ||
| 2025-11-01T23:41 | 3559 | 641 | 246 | 13 | ||
| 2025-11-01T23:42 | 3886 | 614 | -13.3 | -22.5 | ||
| 2025-11-01T23:42 | 3909 | 613 | 230 | 15 | ||
| 2025-11-01T23:42 | 4047 | 602 | -14.5 | -24.6 | ||
| 2025-11-01T23:42 | 4099 | 597 | -14.8 | -25.7 | ||
| 2025-11-01T23:43 | 4252 | 585 | 232 | 20 | ||
| 2025-11-01T23:43 | 4258 | 585 | -15.8 | -23.4 | ||
| 2025-11-01T23:44 | 4593 | 559 | 239 | 15 | ||
| 2025-11-01T23:44 | 4657 | 555 | -18.8 | -27.3 | ||
| 2025-11-01T23:45 | 4939 | 534 | 237 | 15 | ||
| 2025-11-01T23:45 | 4980 | 531 | -21.7 | -28.3 | ||
| 2025-11-01T23:45 | 5063 | 525 | -22.4 | -31.1 | ||
| 2025-11-01T23:45 | 5177 | 517 | -23.3 | -34.0 | ||
| 2025-11-01T23:46 | 5294 | 509 | 237 | 15 | ||
| 2025-11-01T23:47 | 5593 | 488 | 243 | 18 | ||
| 2025-11-01T23:48 | 5941 | 465 | 241 | 22 | ||
| 2025-11-01T23:49 | 6299 | 442 | 242 | 28 | ||
| 2025-11-01T23:49 | 6525 | 428 | -33.8 | -49.0 | ||
| 2025-11-01T23:50 | 6625 | 422 | 234 | 35 | ||
| 2025-11-01T23:50 | 6857 | 408 | -36.3 | -50.4 | ||
| 2025-11-01T23:51 | 6934 | 404 | 233 | 36 | ||
| 2025-11-01T23:52 | 7237 | 386 | 233 | 38 | ||
| 2025-11-01T23:52 | 7363 | 379 | -39.8 | -56.6 | ||
| 2025-11-01T23:52 | 7409 | 377 | -40.0 | -57.3 | ||
| 2025-11-01T23:53 | 7548 | 369 | 239 | 41 | ||
| 2025-11-01T23:54 | 7889 | 351 | 232 | 42 | ||
| 2025-11-01T23:54 | 8007 | 345 | -43.9 | |||
| 2025-11-01T23:54 | 8165 | 337 | 231 | 44 | ||
| 2025-11-01T23:54 | 8178 | 336 | -44.2 | |||
| 2025-11-01T23:55 | 8242 | 333 | -43.7 | |||
| 2025-11-01T23:55 | 8262 | 332 | 231 | 46 | ||
| 2025-11-01T23:56 | 8667 | 313 | -44.4 | 227 | 44 | |
| 2025-11-01T23:56 | 8849 | 304 | -45.6 | |||
| 2025-11-01T23:56 | 8972 | 299 | 222 | 45 | ||
| 2025-11-01T23:57 | 9149 | 291 | 226 | 49 | ||
| 2025-11-01T23:57 | 9358 | 282 | -47.3 | |||
| 2025-11-01T23:58 | 9453 | 278 | 231 | 46 | ||
| 2025-11-01T23:58 | 9578 | 273 | -46.6 | |||
| 2025-11-01T23:59 | 9824 | 263 | 228 | 44 | ||
| 2025-11-01T23:59 | 9964 | 257 | -48.5 | |||
| 2025-11-01T23:59 | 10079 | 253 | 224 | 46 | ||
| 2025-11-02T00:00 | 10281 | 245 | 228 | 46 | ||
| 2025-11-02T00:00 | 10413 | 240 | -50.2 | |||
| 2025-11-02T00:00 | 10439 | 239 | 229 | 48 | ||
| 2025-11-02T00:01 | 10619 | 233 | -50.8 | |||
| 2025-11-02T00:01 | 10737 | 228 | 226 | 53 | ||
| 2025-11-02T00:01 | 10795 | 226 | -51.7 | |||
| 2025-11-02T00:02 | 10918 | 222 | 230 | 52 | ||
| 2025-11-02T00:02 | 10988 | 220 | -52.1 | |||
| 2025-11-02T00:03 | 11278 | 210 | 234 | 46 | ||
| 2025-11-02T00:03 | 11290 | 210 | -52.7 | |||
| 2025-11-02T00:04 | 11569 | 201 | 232 | 48 | ||
| 2025-11-02T00:04 | 11756 | 195 | -54.1 | |||
| 2025-11-02T00:04 | 11853 | 192 | 237 | 48 | ||
| 2025-11-02T00:05 | 11893 | 191 | -54.2 | |||
| 2025-11-02T00:05 | 12027 | 187 | 239 | 46 | ||
| 2025-11-02T00:05 | 12060 | 186 | -54.6 | |||
| 2025-11-02T00:05 | 12134 | 184 | -53.1 | |||
| 2025-11-02T00:06 | 12336 | 178 | 232 | 43 | ||
| 2025-11-02T00:06 | 12443 | 175 | -54.6 | |||
| 2025-11-02T00:07 | 12687 | 169 | 237 | 42 | ||
| 2025-11-02T00:08 | 12953 | 162 | -55.3 | |||
| 2025-11-02T00:08 | 13070 | 159 | 235 | 44 | ||
| 2025-11-02T00:08 | 13191 | 156 | -55.3 | |||
| 2025-11-02T00:09 | 13328 | 153 | -55.8 | |||
| 2025-11-02T00:09 | 13455 | 150 | 236 | 44 | ||
| 2025-11-02T00:10 | 13763 | 142 | 229 | 46 | ||
| 2025-11-02T00:10 | 13850 | 141 | -56.6 | |||
| 2025-11-02T00:10 | 13928 | 139 | 235 | 49 | ||
| 2025-11-02T00:11 | 14151 | 134 | -55.4 | |||
| 2025-11-02T00:11 | 14233 | 132 | 236 | 53 | ||
| 2025-11-02T00:12 | 14522 | 126 | -54.2 | |||
| 2025-11-02T00:12 | 14622 | 124 | 235 | 51 | ||
| 2025-11-02T00:13 | 14886 | 119 | -53.2 | |||
| 2025-11-02T00:13 | 15074 | 116 | 253 | 47 | ||
| 2025-11-02T00:14 | 15226 | 113 | -53.8 | |||
| 2025-11-02T00:14 | 15391 | 110 | -52.1 | |||
| 2025-11-02T00:14 | 15416 | 110 | 254 | 41 | ||
| 2025-11-02T00:15 | 15480 | 109 | -51.3 | |||
| 2025-11-02T00:15 | 15541 | 108 | 249 | 41 | ||
| 2025-11-02T00:15 | 15589 | 107 | -50.5 | |||
| 2025-11-02T00:15 | 15657 | 106 | 248 | 36 | ||
| 2025-11-02T00:15 | 15701 | 105 | -48.7 | |||
| 2025-11-02T00:16 | 15771 | 104 | 249 | 38 | ||
| 2025-11-02T00:16 | 15779 | 104 | -48.5 | |||
| 2025-11-02T00:16 | 15860 | 103 | -47.1 | |||
| 2025-11-02T00:16 | 15912 | 102 | 247 | 32 | ||
| 2025-11-02T00:16 | 16107 | 99 | -47.6 | |||
| 2025-11-02T00:16 | 16143 | 99 | 247 | 21 | ||
| 2025-11-02T00:17 | 16506 | 93 | 207 | 12 | ||
| 2025-11-02T00:18 | 16788 | 89 | -51.9 | |||
| 2025-11-02T00:18 | 16796 | 89 | 199 | 14 | ||
| 2025-11-02T00:18 | 17017 | 86 | -52.0 | |||
| 2025-11-02T00:18 | 17054 | 86 | 216 | 20 | ||
| 2025-11-02T00:19 | 17453 | 80 | -55.4 | |||
| 2025-11-02T00:19 | 17470 | 80 | 229 | 23 | ||
| 2025-11-02T00:19 | 17587 | 79 | -53.4 | |||
| 2025-11-02T00:20 | 17826 | 76 | 203 | 28 | ||
| 2025-11-02T00:20 | 17981 | 74 | 202 | 28 | ||
| 2025-11-02T00:21 | 18169 | 72 | 200 | 31 | ||
| 2025-11-02T00:21 | 18313 | 70 | -58.1 | |||
| 2025-11-02T00:22 | 18585 | 67 | 222 | 32 | ||
| 2025-11-02T00:23 | 18935 | 64 | 234 | 35 | ||
| 2025-11-02T00:23 | 18970 | 63 | -58.3 | |||
| 2025-11-02T00:24 | 19238 | 61 | 248 | 31 | ||
| 2025-11-02T00:24 | 19269 | 60 | -56.9 | |||
| 2025-11-02T00:24 | 19374 | 59 | -56.3 | |||
| 2025-11-02T00:25 | 19593 | 57 | 238 | 27 | ||
| 2025-11-02T00:25 | 19956 | 54 | -56.1 | |||
| 2025-11-02T00:25 | 19990 | 54 | 232 | 33 | ||
| 2025-11-02T00:26 | 20078 | 53 | -51.5 | |||
| 2025-11-02T00:26 | 20262 | 52 | -51.2 | |||
| 2025-11-02T00:26 | 20338 | 51 | -49.9 | 239 | 39 | |
| 2025-11-02T00:27 | 20518 | 50 | -50.0 | 242 | 36 | |
| 2025-11-02T00:27 | 20653 | 49 | 243 | 36 | ||
| 2025-11-02T00:28 | 20845 | 47 | -45.4 | 231 | 26 | |
| 2025-11-02T00:28 | 21092 | 46 | 218 | 24 | ||
| 2025-11-02T00:29 | 21253 | 45 | -46.3 | |||
| 2025-11-02T00:29 | 21512 | 43 | 212 | 26 | ||
| 2025-11-02T00:30 | 21702 | 42 | 202 | 23 | ||
| 2025-11-02T00:31 | 22154 | 39 | 204 | 25 | ||
| 2025-11-02T00:32 | 22496 | 37 | 221 | 25 | ||
| 2025-11-02T00:33 | 22875 | 35 | 241 | 25 | ||
| 2025-11-02T00:33 | 22948 | 34 | -54.1 | |||
| 2025-11-02T00:33 | 23196 | 33 | 247 | 21 | ||
| 2025-11-02T00:34 | 23414 | 32 | -53.0 | |||
| 2025-11-02T00:34 | 23453 | 32 | 250 | 21 | ||
| 2025-11-02T00:35 | 23748 | 30 | -51.2 | |||
| 2025-11-02T00:35 | 23855 | 30 | 239 | 30 | ||
| 2025-11-02T00:35 | 23932 | 30 | -52.5 | 239 | 31 | |
| 2025-11-02T11:30 | 18 | 1010 | 8.1 | 3.7 | 320 | 2 |
| 2025-11-02T11:30 | 22 | 1010 | 8.1 | 3.4 | 0 | 0 |
| 2025-11-02T11:30 | 98 | 1000 | 312 | 3 | ||
| 2025-11-02T11:31 | 210 | 987 | 318 | 5 | ||
| 2025-11-02T11:32 | 535 | 948 | 319 | 7 | ||
| 2025-11-02T11:32 | 761 | 922 | 1.7 | 0.1 | ||
| 2025-11-02T11:33 | 884 | 908 | 312 | 8 | ||
| 2025-11-02T11:33 | 952 | 901 | 0.2 | -1.7 | ||
| 2025-11-02T11:33 | 1002 | 895 | 332 | 6 | ||
| 2025-11-02T11:33 | 1029 | 892 | 1.1 | -7.9 | ||
| 2025-11-02T11:34 | 1225 | 871 | 14 | 7 | ||
| 2025-11-02T11:34 | 1241 | 869 | 0.2 | -10.9 | ||
| 2025-11-02T11:34 | 1333 | 859 | 2 | 6 | ||
| 2025-11-02T11:34 | 1447 | 847 | 353 | 8 | ||
| 2025-11-02T11:35 | 1555 | 835 | -2.7 | -9.6 | ||
| 2025-11-02T11:35 | 1725 | 818 | 348 | 2 | ||
| 2025-11-02T11:35 | 1785 | 811 | -4.0 | -10.2 | ||
| 2025-11-02T11:36 | 1855 | 804 | 216 | 3 | ||
| 2025-11-02T11:36 | 1934 | 796 | 260 | 3 | ||
| 2025-11-02T11:36 | 1995 | 790 | 300 | 3 | ||
| 2025-11-02T11:36 | 2010 | 789 | -5.3 | -12.5 | ||
| 2025-11-02T11:37 | 2221 | 767 | 299 | 4 | ||
| 2025-11-02T11:37 | 2349 | 755 | 308 | 5 | ||
| 2025-11-02T11:38 | 2655 | 726 | 309 | 6 | ||
| 2025-11-02T11:39 | 2785 | 713 | -11.5 | -15.0 | ||
| 2025-11-02T11:39 | 2832 | 709 | 281 | 5 | ||
| 2025-11-02T11:39 | 2921 | 701 | 271 | 6 | ||
| 2025-11-02T11:40 | 3087 | 686 | 287 | 7 | ||
| 2025-11-02T11:40 | 3134 | 682 | -13.1 | -16.8 | ||
| 2025-11-02T11:40 | 3172 | 678 | -12.5 | -15.9 | ||
| 2025-11-02T11:40 | 3205 | 675 | 246 | 3 | ||
| 2025-11-02T11:40 | 3303 | 667 | -13.0 | -16.0 | ||
| 2025-11-02T11:40 | 3314 | 666 | 235 | 3 | ||
| 2025-11-02T11:41 | 3445 | 654 | 267 | 7 | ||
| 2025-11-02T11:42 | 3786 | 626 | 284 | 10 | ||
| 2025-11-02T11:42 | 3938 | 613 | 263 | 9 | ||
| 2025-11-02T11:43 | 4199 | 592 | 261 | 12 | ||
| 2025-11-02T11:43 | 4257 | 587 | -20.0 | -22.6 | ||
| 2025-11-02T11:44 | 4547 | 565 | 240 | 16 | ||
| 2025-11-02T11:45 | 4908 | 538 | 221 | 21 | ||
| 2025-11-02T11:45 | 4969 | 533 | -24.6 | -27.2 | ||
| 2025-11-02T11:46 | 5281 | 511 | 210 | 19 | ||
| 2025-11-02T11:47 | 5678 | 483 | 209 | 17 | ||
| 2025-11-02T11:48 | 6076 | 456 | 211 | 16 | ||
| 2025-11-02T11:48 | 6262 | 444 | -35.8 | -38.3 | ||
| 2025-11-02T11:48 | 6328 | 440 | 197 | 22 | ||
| 2025-11-02T11:49 | 6523 | 428 | 206 | 22 | ||
| 2025-11-02T11:49 | 6660 | 419 | 214 | 24 | ||
| 2025-11-02T11:49 | 6718 | 416 | -40.0 | -43.2 | ||
| 2025-11-02T11:50 | 7029 | 397 | 219 | 23 | ||
| 2025-11-02T11:51 | 7111 | 392 | -43.3 | |||
| 2025-11-02T11:51 | 7339 | 379 | 214 | 25 | ||
| 2025-11-02T11:51 | 7358 | 378 | -44.6 | |||
| 2025-11-02T11:52 | 7681 | 360 | -46.6 | |||
| 2025-11-02T11:52 | 7687 | 360 | 220 | 35 | ||
| 2025-11-02T11:53 | 7915 | 348 | -46.9 | |||
| 2025-11-02T11:53 | 8000 | 343 | 223 | 39 | ||
| 2025-11-02T11:54 | 8253 | 330 | -47.5 | |||
| 2025-11-02T11:54 | 8273 | 329 | 220 | 44 | ||
| 2025-11-02T11:55 | 8679 | 310 | 227 | 47 | ||
| 2025-11-02T11:55 | 8686 | 309 | -48.5 | |||
| 2025-11-02T11:55 | 8772 | 305 | -48.2 | |||
| 2025-11-02T11:55 | 8958 | 297 | -48.8 | |||
| 2025-11-02T11:56 | 9100 | 291 | 222 | 52 | ||
| 2025-11-02T11:56 | 9332 | 280 | -49.1 | |||
| 2025-11-02T11:57 | 9507 | 273 | 230 | 49 | ||
| 2025-11-02T11:57 | 9542 | 272 | -47.5 | |||
| 2025-11-02T11:58 | 9924 | 256 | 225 | 49 | ||
| 2025-11-02T11:58 | 9980 | 254 | -46.3 | |||
| 2025-11-02T11:58 | 10165 | 247 | -46.9 | |||
| 2025-11-02T11:58 | 10231 | 245 | 226 | 57 | ||
| 2025-11-02T11:59 | 10626 | 231 | 229 | 58 | ||
| 2025-11-02T12:00 | 10686 | 229 | -47.8 | |||
| 2025-11-02T12:00 | 10927 | 220 | 234 | 53 | ||
| 2025-11-02T12:00 | 11014 | 218 | -46.2 | |||
| 2025-11-02T12:01 | 11121 | 214 | -45.5 | |||
| 2025-11-02T12:01 | 11236 | 210 | 232 | 47 | ||
| 2025-11-02T12:02 | 11581 | 200 | 231 | 46 | ||
| 2025-11-02T12:03 | 11781 | 194 | -46.9 | |||
| 2025-11-02T12:03 | 11928 | 190 | 230 | 51 | ||
| 2025-11-02T12:04 | 12103 | 185 | -49.4 | |||
| 2025-11-02T12:04 | 12298 | 179 | 233 | 45 | ||
| 2025-11-02T12:05 | 12461 | 175 | -50.6 | |||
| 2025-11-02T12:05 | 12542 | 173 | 236 | 46 | ||
| 2025-11-02T12:05 | 12682 | 169 | -50.4 | |||
| 2025-11-02T12:06 | 12879 | 164 | 229 | 46 | ||
| 2025-11-02T12:07 | 13222 | 155 | -52.4 | 235 | 45 | |
| 2025-11-02T12:07 | 13356 | 152 | -51.6 | |||
| 2025-11-02T12:08 | 13560 | 148 | 232 | 42 | ||
| 2025-11-02T12:08 | 13751 | 143 | 231 | 43 | ||
| 2025-11-02T12:09 | 14112 | 135 | 228 | 39 | ||
| 2025-11-02T12:09 | 14143 | 135 | -53.5 | |||
| 2025-11-02T12:10 | 14475 | 128 | 237 | 40 | ||
| 2025-11-02T12:11 | 14536 | 127 | -52.8 | |||
| 2025-11-02T12:11 | 14836 | 121 | 236 | 41 | ||
| 2025-11-02T12:12 | 14953 | 119 | -53.8 | |||
| 2025-11-02T12:12 | 15101 | 116 | 238 | 41 | ||
| 2025-11-02T12:13 | 15361 | 112 | -54.8 | |||
| 2025-11-02T12:13 | 15451 | 110 | 238 | 36 | ||
| 2025-11-02T12:14 | 15611 | 107 | -54.1 | |||
| 2025-11-02T12:14 | 15822 | 104 | 249 | 37 | ||
| 2025-11-02T12:14 | 15841 | 104 | -53.8 | |||
| 2025-11-02T12:15 | 16204 | 98 | 252 | 29 | ||
| 2025-11-02T12:15 | 16328 | 96 | -54.9 | |||
| 2025-11-02T12:16 | 16410 | 95 | 243 | 28 | ||
| 2025-11-02T12:16 | 16635 | 91 | 235 | 28 | ||
| 2025-11-02T12:17 | 16930 | 87 | -54.4 | |||
| 2025-11-02T12:17 | 17019 | 86 | 228 | 34 | ||
| 2025-11-02T12:18 | 17122 | 85 | -54.9 | |||
| 2025-11-02T12:18 | 17243 | 83 | 231 | 30 | ||
| 2025-11-02T12:18 | 17423 | 81 | 233 | 26 | ||
| 2025-11-02T12:19 | 17625 | 78 | -56.7 | |||
| 2025-11-02T12:19 | 17789 | 76 | 244 | 35 | ||
| 2025-11-02T12:20 | 17896 | 75 | -56.8 | |||
| 2025-11-02T12:20 | 18016 | 74 | 247 | 34 | ||
| 2025-11-02T12:21 | 18235 | 71 | -55.0 | |||
| 2025-11-02T12:21 | 18347 | 70 | -54.2 | |||
| 2025-11-02T12:21 | 18391 | 69 | 235 | 25 | ||
| 2025-11-02T12:22 | 18616 | 67 | -54.0 | |||
| 2025-11-02T12:22 | 18773 | 65 | 229 | 28 | ||
| 2025-11-02T12:22 | 18901 | 64 | -55.5 | |||
| 2025-11-02T12:23 | 19031 | 63 | -54.5 | 221 | 34 | |
| 2025-11-02T12:23 | 19250 | 61 | -54.7 | |||
| 2025-11-02T12:24 | 19270 | 61 | 227 | 32 | ||
| 2025-11-02T12:24 | 19399 | 59 | -54.2 | |||
| 2025-11-02T12:25 | 19577 | 58 | 235 | 28 | ||
| 2025-11-02T12:25 | 19708 | 57 | -52.8 | |||
| 2025-11-02T12:25 | 19814 | 56 | 225 | 28 | ||
| 2025-11-02T12:25 | 19839 | 55 | -51.8 | |||
| 2025-11-02T12:26 | 20208 | 52 | 221 | 32 | ||
| 2025-11-02T12:27 | 20343 | 51 | -54.5 | |||
| 2025-11-02T12:27 | 20573 | 49 | 234 | 31 | ||
| 2025-11-02T12:28 | 20731 | 48 | -50.8 | |||
| 2025-11-02T12:28 | 20926 | 47 | 239 | 27 | ||
| 2025-11-02T12:29 | 21066 | 46 | -51.0 | |||
| 2025-11-02T12:29 | 21311 | 44 | 233 | 27 | ||
| 2025-11-02T12:30 | 21433 | 43 | -49.0 | |||
| 2025-11-02T12:30 | 21755 | 41 | 234 | 27 | ||
| 2025-11-02T12:31 | 21901 | 40 | -50.2 | |||
| 2025-11-02T12:31 | 22148 | 39 | 233 | 20 | ||
| 2025-11-02T12:32 | 22422 | 37 | -51.2 | |||
| 2025-11-02T12:32 | 22472 | 37 | 227 | 21 | ||
| 2025-11-02T12:32 | 22617 | 36 | 229 | 26 | ||
| 2025-11-02T12:33 | 22876 | 35 | -49.7 | |||
| 2025-11-02T12:33 | 23026 | 34 | 216 | 20 | ||
| 2025-11-02T12:34 | 23444 | 32 | 212 | 23 | ||
| 2025-11-02T12:35 | 23706 | 31 | -54.9 | |||
| 2025-11-02T12:35 | 23836 | 30 | 230 | 25 | ||
| 2025-11-02T12:36 | 24278 | 28 | 256 | 24 | ||
| 2025-11-02T12:37 | 24584 | 27 | -54.5 | |||
| 2025-11-02T12:37 | 24607 | 27 | 248 | 24 | ||
| 2025-11-02T12:37 | 24728 | 26 | -52.2 | |||
| 2025-11-02T12:38 | 24887 | 25 | -53.4 | 247 | 23 | |
| 2025-11-02T23:30 | 18 | 1017 | 6.0 | 0.9 | 350 | 1 |
| 2025-11-02T23:30 | 22 | 1016 | 6.4 | 0.7 | 0 | 0 |
| 2025-11-02T23:31 | 312 | 981 | 355 | 3 | ||
| 2025-11-02T23:31 | 341 | 977 | 2.8 | -1.6 | ||
| 2025-11-02T23:31 | 437 | 966 | 17 | 4 | ||
| 2025-11-02T23:32 | 534 | 954 | 1.7 | -2.8 | ||
| 2025-11-02T23:32 | 588 | 948 | 4 | 7 | ||
| 2025-11-02T23:32 | 783 | 925 | -0.4 | -0.8 | ||
| 2025-11-02T23:32 | 789 | 924 | 343 | 6 | ||
| 2025-11-02T23:33 | 1145 | 884 | 329 | 7 | ||
| 2025-11-02T23:33 | 1199 | 878 | -3.6 | -4.7 | ||
| 2025-11-02T23:34 | 1491 | 846 | 359 | 8 | ||
| 2025-11-02T23:34 | 1546 | 840 | -5.6 | -10.8 | ||
| 2025-11-02T23:35 | 1765 | 817 | -7.1 | -12.2 | ||
| 2025-11-02T23:35 | 1811 | 812 | 355 | 8 | ||
| 2025-11-02T23:35 | 1842 | 809 | -7.5 | -12.8 | ||
| 2025-11-02T23:36 | 1920 | 801 | -7.7 | -14.3 | ||
| 2025-11-02T23:36 | 1972 | 795 | 355 | 10 | ||
| 2025-11-02T23:36 | 2013 | 791 | -7.8 | -12.5 | ||
| 2025-11-02T23:36 | 2110 | 781 | -6.9 | -15.3 | ||
| 2025-11-02T23:36 | 2154 | 777 | -6.0 | -18.7 | ||
| 2025-11-02T23:37 | 2298 | 763 | 336 | 8 | ||
| 2025-11-02T23:37 | 2446 | 748 | -7.8 | -23.2 | ||
| 2025-11-02T23:38 | 2599 | 734 | 325 | 4 | ||
| 2025-11-02T23:38 | 2794 | 715 | 307 | 2 | ||
| 2025-11-02T23:39 | 2932 | 703 | -11.7 | -27.8 | ||
| 2025-11-02T23:39 | 2960 | 700 | 268 | 3 | ||
| 2025-11-02T23:39 | 3219 | 677 | 257 | 4 | ||
| 2025-11-02T23:40 | 3306 | 669 | -14.1 | -35.9 | ||
| 2025-11-02T23:40 | 3463 | 655 | 267 | 11 | ||
| 2025-11-02T23:40 | 3475 | 654 | -15.0 | -39.0 | ||
| 2025-11-02T23:41 | 3800 | 627 | 260 | 10 | ||
| 2025-11-02T23:41 | 3862 | 622 | -17.6 | -39.5 | ||
| 2025-11-02T23:42 | 4134 | 599 | 258 | 11 | ||
| 2025-11-02T23:42 | 4269 | 588 | -21.4 | -38.0 | ||
| 2025-11-02T23:43 | 4364 | 581 | -22.1 | -44.7 | ||
| 2025-11-02T23:43 | 4467 | 573 | 265 | 11 | ||
| 2025-11-02T23:44 | 4703 | 555 | 258 | 16 | ||
| 2025-11-02T23:44 | 4753 | 551 | -25.5 | -34.2 | ||
| 2025-11-02T23:44 | 4842 | 544 | 257 | 15 | ||
| 2025-11-02T23:44 | 4922 | 538 | -26.7 | -33.4 | ||
| 2025-11-02T23:45 | 5016 | 531 | 250 | 16 | ||
| 2025-11-02T23:45 | 5059 | 528 | -27.5 | -36.5 | ||
| 2025-11-02T23:46 | 5398 | 503 | 255 | 20 | ||
| 2025-11-02T23:46 | 5562 | 492 | -31.9 | -42.6 | ||
| 2025-11-02T23:46 | 5587 | 490 | 252 | 21 | ||
| 2025-11-02T23:47 | 5830 | 474 | 258 | 22 | ||
| 2025-11-02T23:48 | 6114 | 455 | -36.6 | -47.1 | ||
| 2025-11-02T23:48 | 6197 | 449 | 255 | 28 | ||
| 2025-11-02T23:49 | 6446 | 433 | -39.2 | -49.2 | ||
| 2025-11-02T23:49 | 6513 | 429 | 254 | 30 | ||
| 2025-11-02T23:49 | 6538 | 428 | -40.0 | -49.6 | ||
| 2025-11-02T23:50 | 6864 | 408 | 250 | 28 | ||
| 2025-11-02T23:50 | 6876 | 407 | -42.8 | |||
| 2025-11-02T23:50 | 7011 | 399 | 245 | 25 | ||
| 2025-11-02T23:51 | 7392 | 377 | 231 | 26 | ||
| 2025-11-02T23:51 | 7469 | 372 | -47.8 | |||
| 2025-11-02T23:52 | 7634 | 363 | -48.7 | |||
| 2025-11-02T23:52 | 7657 | 362 | 230 | 26 | ||
| 2025-11-02T23:52 | 7746 | 357 | -48.1 | |||
| 2025-11-02T23:52 | 7794 | 354 | 233 | 21 | ||
| 2025-11-02T23:52 | 7886 | 349 | -47.9 | |||
| 2025-11-02T23:53 | 8001 | 343 | -47.4 | |||
| 2025-11-02T23:53 | 8091 | 339 | -47.5 | |||
| 2025-11-02T23:53 | 8173 | 334 | 238 | 26 | ||
| 2025-11-02T23:53 | 8205 | 333 | -47.5 | |||
| 2025-11-02T23:54 | 8299 | 328 | -47.1 | |||
| 2025-11-02T23:54 | 8342 | 326 | 245 | 26 | ||
| 2025-11-02T23:54 | 8442 | 321 | -46.4 | |||
| 2025-11-02T23:54 | 8563 | 315 | 248 | 24 | ||
| 2025-11-02T23:54 | 8617 | 313 | -47.2 | |||
| 2025-11-02T23:55 | 8739 | 307 | 250 | 21 | ||
| 2025-11-02T23:55 | 8746 | 307 | -46.5 | |||
| 2025-11-02T23:55 | 8841 | 302 | -45.6 | |||
| 2025-11-02T23:55 | 9026 | 294 | 253 | 21 | ||
| 2025-11-02T23:55 | 9033 | 294 | -45.7 | |||
| 2025-11-02T23:56 | 9100 | 291 | -44.3 | |||
| 2025-11-02T23:56 | 9165 | 288 | 242 | 18 | ||
| 2025-11-02T23:56 | 9343 | 281 | -44.5 | |||
| 2025-11-02T23:56 | 9437 | 277 | 248 | 25 | ||
| 2025-11-02T23:57 | 9463 | 276 | -43.7 | |||
| 2025-11-02T23:57 | 9771 | 263 | -45.4 | |||
| 2025-11-02T23:57 | 9814 | 261 | 243 | 24 | ||
| 2025-11-02T23:58 | 9956 | 256 | -45.4 | |||
| 2025-11-02T23:58 | 10171 | 248 | 241 | 23 | ||
| 2025-11-02T23:59 | 10539 | 235 | 241 | 25 | ||
| 2025-11-03T00:00 | 10926 | 221 | 243 | 26 | ||
| 2025-11-03T00:01 | 11043 | 217 | -46.3 | |||
| 2025-11-03T00:01 | 11292 | 209 | 242 | 28 | ||
| 2025-11-03T00:02 | 11618 | 199 | 243 | 27 | ||
| 2025-11-03T00:03 | 11842 | 193 | -47.3 | |||
| 2025-11-03T00:03 | 11955 | 189 | 238 | 29 | ||
| 2025-11-03T00:04 | 12139 | 184 | -48.9 | |||
| 2025-11-03T00:04 | 12279 | 180 | 237 | 28 | ||
| 2025-11-03T00:05 | 12618 | 171 | 238 | 29 | ||
| 2025-11-03T00:06 | 12795 | 167 | -51.0 | |||
| 2025-11-03T00:06 | 12969 | 162 | 236 | 31 | ||
| 2025-11-03T00:07 | 13181 | 157 | -52.2 | |||
| 2025-11-03T00:07 | 13305 | 154 | 233 | 31 | ||
| 2025-11-03T00:08 | 13646 | 146 | 243 | 32 | ||
| 2025-11-03T00:09 | 13873 | 141 | -52.2 | |||
| 2025-11-03T00:09 | 14002 | 138 | 244 | 30 | ||
| 2025-11-03T00:10 | 14337 | 131 | 238 | 30 | ||
| 2025-11-03T00:11 | 14667 | 125 | -53.0 | |||
| 2025-11-03T00:11 | 14698 | 124 | 239 | 30 | ||
| 2025-11-03T00:12 | 15073 | 117 | 245 | 29 | ||
| 2025-11-03T00:13 | 15306 | 113 | 243 | 29 | ||
| 2025-11-03T00:14 | 15688 | 106 | 245 | 31 | ||
| 2025-11-03T00:14 | 15694 | 106 | -55.1 | |||
| 2025-11-03T00:14 | 15888 | 103 | 254 | 31 | ||
| 2025-11-03T00:15 | 15955 | 102 | -54.5 | |||
| 2025-11-03T00:15 | 16036 | 101 | 253 | 28 | ||
| 2025-11-03T00:15 | 16145 | 99 | -54.5 | |||
| 2025-11-03T00:16 | 16315 | 96 | -54.7 | |||
| 2025-11-03T00:16 | 16414 | 95 | 245 | 28 | ||
| 2025-11-03T00:16 | 16565 | 93 | -55.5 | |||
| 2025-11-03T00:17 | 16724 | 90 | 245 | 33 | ||
| 2025-11-03T00:17 | 16768 | 90 | -55.7 | |||
| 2025-11-03T00:18 | 17107 | 85 | 243 | 26 | ||
| 2025-11-03T00:18 | 17159 | 84 | -55.3 | |||
| 2025-11-03T00:18 | 17348 | 82 | 256 | 27 | ||
| 2025-11-03T00:19 | 17590 | 79 | 261 | 27 | ||
| 2025-11-03T00:19 | 17615 | 79 | -57.1 | |||
| 2025-11-03T00:20 | 17811 | 76 | 249 | 23 | ||
| 2025-11-03T00:20 | 17928 | 75 | -55.3 | |||
| 2025-11-03T00:20 | 18171 | 72 | 237 | 28 | ||
| 2025-11-03T00:21 | 18223 | 71 | -56.4 | |||
| 2025-11-03T00:21 | 18406 | 69 | 234 | 22 | ||
| 2025-11-03T00:21 | 18505 | 68 | -56.3 | |||
| 2025-11-03T00:22 | 18760 | 66 | 228 | 23 | ||
| 2025-11-03T00:22 | 18858 | 65 | -57.0 | |||
| 2025-11-03T00:23 | 19129 | 62 | 237 | 26 | ||
| 2025-11-03T00:24 | 19338 | 60 | -56.2 | |||
| 2025-11-03T00:24 | 19456 | 59 | 236 | 28 | ||
| 2025-11-03T00:25 | 19797 | 56 | -57.1 | |||
| 2025-11-03T00:25 | 19854 | 55 | 239 | 34 | ||
| 2025-11-03T00:25 | 19948 | 54 | -55.0 | |||
| 2025-11-03T00:26 | 20166 | 53 | -53.3 | |||
| 2025-11-03T00:26 | 20216 | 52 | 254 | 29 | ||
| 2025-11-03T00:26 | 20279 | 52 | -52.6 | |||
| 2025-11-03T00:27 | 20452 | 50 | -53.0 | |||
| 2025-11-03T00:27 | 20477 | 50 | 246 | 32 | ||
| 2025-11-03T00:27 | 20717 | 48 | -48.4 | |||
| 2025-11-03T00:27 | 20732 | 48 | 223 | 16 | ||
| 2025-11-03T00:28 | 21006 | 46 | 199 | 17 | ||
| 2025-11-03T00:29 | 21409 | 43 | 201 | 19 | ||
| 2025-11-03T00:30 | 21713 | 41 | -54.3 | |||
| 2025-11-03T00:30 | 21840 | 41 | 224 | 23 | ||
| 2025-11-03T00:31 | 22197 | 38 | 242 | 26 | ||
| 2025-11-03T00:31 | 22279 | 38 | -54.4 | |||
| 2025-11-03T00:31 | 22346 | 38 | 249 | 31 | ||
| 2025-11-03T00:31 | 22487 | 37 | -50.6 | |||
| 2025-11-03T00:32 | 22561 | 36 | 244 | 24 | ||
| 2025-11-03T00:33 | 22953 | 34 | 230 | 25 | ||
| 2025-11-03T00:33 | 23124 | 33 | -47.7 | |||
| 2025-11-03T00:34 | 23327 | 32 | 232 | 25 | ||
| 2025-11-03T00:34 | 23639 | 31 | -49.4 | 235 | 23 | |
| 2025-11-03T00:35 | 23787 | 30 | 226 | 20 | ||
| 2025-11-03T00:35 | 24074 | 29 | 231 | 22 | ||
| 2025-11-03T00:36 | 24164 | 28 | -49.8 | |||
| 2025-11-03T00:36 | 24494 | 27 | 226 | 23 | ||
| 2025-11-03T00:37 | 24667 | 26 | -51.9 | |||
| 2025-11-03T00:37 | 24793 | 26 | 231 | 24 | ||
| 2025-11-03T00:38 | 25197 | 24 | -52.4 | 242 | 21 | |
| 2025-11-03T11:30 | 18 | 1023 | 6.2 | 3.0 | 280 | 1 |
| 2025-11-03T11:30 | 22 | 1022 | 6.3 | 2.2 | 0 | 0 |
| 2025-11-03T11:31 | 316 | 986 | 291 | 4 | ||
| 2025-11-03T11:32 | 554 | 957 | 306 | 5 | ||
| 2025-11-03T11:32 | 589 | 953 | 1.6 | -0.2 | ||
| 2025-11-03T11:33 | 885 | 919 | 335 | 5 | ||
| 2025-11-03T11:33 | 1147 | 889 | -2.6 | -4.0 | ||
| 2025-11-03T11:34 | 1236 | 879 | 333 | 8 | ||
| 2025-11-03T11:34 | 1300 | 872 | -3.7 | -5.4 | ||
| 2025-11-03T11:35 | 1579 | 842 | 316 | 7 | ||
| 2025-11-03T11:35 | 1613 | 838 | -6.3 | -7.0 | ||
| 2025-11-03T11:35 | 1699 | 829 | -7.0 | -9.7 | ||
| 2025-11-03T11:35 | 1746 | 824 | -6.8 | -14.6 | ||
| 2025-11-03T11:35 | 1804 | 818 | -6.2 | -18.2 | ||
| 2025-11-03T11:35 | 1840 | 814 | 328 | 9 | ||
| 2025-11-03T11:36 | 1917 | 806 | -6.5 | -22.9 | ||
| 2025-11-03T11:36 | 2146 | 783 | -6.0 | -41.8 | ||
| 2025-11-03T11:36 | 2199 | 778 | 321 | 10 | ||
| 2025-11-03T11:37 | 2295 | 768 | -6.1 | -38.0 | ||
| 2025-11-03T11:37 | 2396 | 758 | 327 | 8 | ||
| 2025-11-03T11:37 | 2518 | 746 | -6.8 | -29.9 | ||
| 2025-11-03T11:37 | 2575 | 741 | 323 | 9 | ||
| 2025-11-03T11:38 | 2757 | 724 | -7.8 | -30.0 | ||
| 2025-11-03T11:38 | 2870 | 713 | 323 | 7 | ||
| 2025-11-03T11:39 | 3095 | 693 | 298 | 6 | ||
| 2025-11-03T11:39 | 3174 | 686 | 295 | 4 | ||
| 2025-11-03T11:39 | 3270 | 677 | 338 | 5 | ||
| 2025-11-03T11:40 | 3524 | 655 | -12.7 | -32.7 | ||
| 2025-11-03T11:40 | 3571 | 651 | 345 | 9 | ||
| 2025-11-03T11:41 | 3683 | 641 | -13.6 | -34.1 | ||
| 2025-11-03T11:41 | 3748 | 636 | 344 | 6 | ||
| 2025-11-03T11:41 | 3853 | 627 | -14.4 | -37.6 | ||
| 2025-11-03T11:42 | 4105 | 607 | 1 | 11 | ||
| 2025-11-03T11:42 | 4226 | 597 | -15.6 | -45.2 | ||
| 2025-11-03T11:42 | 4337 | 588 | -15.5 | -41.3 | ||
| 2025-11-03T11:43 | 4348 | 587 | 4 | 15 | ||
| 2025-11-03T11:43 | 4459 | 579 | -16.0 | -38.9 | ||
| 2025-11-03T11:43 | 4668 | 563 | 14 | 18 | ||
| 2025-11-03T11:44 | 4834 | 551 | -18.0 | -41.4 | ||
| 2025-11-03T11:44 | 5014 | 538 | 4 | 20 | ||
| 2025-11-03T11:45 | 5245 | 521 | -21.5 | -41.9 | 360 | 18 |
| 2025-11-03T11:46 | 5462 | 506 | 1 | 22 | ||
| 2025-11-03T11:47 | 5799 | 483 | 2 | 20 | ||
| 2025-11-03T11:47 | 5848 | 480 | -25.5 | -44.6 | ||
| 2025-11-03T11:47 | 5977 | 471 | 2 | 22 | ||
| 2025-11-03T11:48 | 6259 | 453 | 4 | 19 | ||
| 2025-11-03T11:48 | 6373 | 446 | -29.4 | -49.8 | ||
| 2025-11-03T11:49 | 6601 | 432 | 359 | 21 | ||
| 2025-11-03T11:50 | 6924 | 413 | 1 | 20 | ||
| 2025-11-03T11:50 | 7004 | 408 | -33.3 | -50.6 | ||
| 2025-11-03T11:51 | 7239 | 394 | 4 | 22 | ||
| 2025-11-03T11:52 | 7519 | 379 | -36.6 | -55.1 | ||
| 2025-11-03T11:52 | 7557 | 377 | 8 | 22 | ||
| 2025-11-03T11:53 | 7874 | 360 | 8 | 23 | ||
| 2025-11-03T11:54 | 8004 | 353 | -40.0 | -60.0 | ||
| 2025-11-03T11:54 | 8191 | 343 | 356 | 21 | ||
| 2025-11-03T11:55 | 8523 | 327 | 356 | 23 | ||
| 2025-11-03T11:55 | 8539 | 326 | -44.0 | |||
| 2025-11-03T11:56 | 8833 | 312 | -45.9 | |||
| 2025-11-03T11:56 | 8844 | 312 | 355 | 23 | ||
| 2025-11-03T11:57 | 9176 | 296 | 355 | 23 | ||
| 2025-11-03T11:58 | 9506 | 282 | 353 | 23 | ||
| 2025-11-03T11:59 | 9833 | 268 | 349 | 21 | ||
| 2025-11-03T12:00 | 10101 | 257 | -52.7 | |||
| 2025-11-03T12:00 | 10130 | 256 | 348 | 23 | ||
| 2025-11-03T12:01 | 10311 | 249 | -53.1 | |||
| 2025-11-03T12:01 | 10416 | 245 | 343 | 24 | ||
| 2025-11-03T12:02 | 10729 | 233 | 344 | 21 | ||
| 2025-11-03T12:02 | 10740 | 233 | -52.9 | |||
| 2025-11-03T12:03 | 11079 | 221 | 337 | 19 | ||
| 2025-11-03T12:04 | 11251 | 215 | -56.1 | |||
| 2025-11-03T12:04 | 11422 | 209 | 330 | 17 | ||
| 2025-11-03T12:04 | 11517 | 206 | -54.0 | |||
| 2025-11-03T12:05 | 11630 | 203 | -53.5 | |||
| 2025-11-03T12:05 | 11690 | 201 | 303 | 13 | ||
| 2025-11-03T12:06 | 11970 | 192 | -55.3 | |||
| 2025-11-03T12:06 | 11990 | 192 | 283 | 19 | ||
| 2025-11-03T12:07 | 12178 | 186 | -52.7 | |||
| 2025-11-03T12:07 | 12300 | 183 | 285 | 18 | ||
| 2025-11-03T12:07 | 12439 | 179 | -52.1 | |||
| 2025-11-03T12:08 | 12640 | 173 | 281 | 20 | ||
| 2025-11-03T12:08 | 12741 | 170 | -53.2 | |||
| 2025-11-03T12:09 | 12897 | 166 | 280 | 22 | ||
| 2025-11-03T12:09 | 12950 | 165 | -52.5 | |||
| 2025-11-03T12:10 | 13246 | 158 | 267 | 15 | ||
| 2025-11-03T12:11 | 13568 | 150 | 252 | 18 | ||
| 2025-11-03T12:11 | 13601 | 149 | -53.8 | |||
| 2025-11-03T12:12 | 13913 | 142 | 252 | 22 | ||
| 2025-11-03T12:13 | 14240 | 135 | -55.9 | |||
| 2025-11-03T12:13 | 14292 | 134 | 257 | 21 | ||
| 2025-11-03T12:13 | 14523 | 129 | -56.6 | |||
| 2025-11-03T12:14 | 14678 | 126 | 268 | 23 | ||
| 2025-11-03T12:14 | 14870 | 122 | -58.6 | |||
| 2025-11-03T12:14 | 14915 | 121 | 276 | 22 | ||
| 2025-11-03T12:15 | 15145 | 117 | 257 | 23 | ||
| 2025-11-03T12:15 | 15248 | 115 | -58.6 | |||
| 2025-11-03T12:16 | 15316 | 114 | 254 | 29 | ||
| 2025-11-03T12:16 | 15371 | 113 | -58.2 | |||
| 2025-11-03T12:16 | 15451 | 111 | -57.8 | |||
| 2025-11-03T12:16 | 15476 | 111 | 260 | 25 | ||
| 2025-11-03T12:17 | 15802 | 105 | 256 | 24 | ||
| 2025-11-03T12:17 | 15852 | 105 | -56.2 | |||
| 2025-11-03T12:18 | 16161 | 100 | 254 | 21 | ||
| 2025-11-03T12:18 | 16329 | 97 | -55.6 | |||
| 2025-11-03T12:19 | 16503 | 94 | -55.4 | |||
| 2025-11-03T12:19 | 16525 | 94 | 255 | 20 | ||
| 2025-11-03T12:20 | 16841 | 89 | 251 | 22 | ||
| 2025-11-03T12:21 | 17139 | 85 | 244 | 23 | ||
| 2025-11-03T12:22 | 17448 | 81 | 245 | 27 | ||
| 2025-11-03T12:23 | 17782 | 77 | -59.8 | |||
| 2025-11-03T12:23 | 17819 | 77 | 258 | 27 | ||
| 2025-11-03T12:23 | 18059 | 74 | -59.6 | |||
| 2025-11-03T12:23 | 18120 | 73 | 253 | 28 | ||
| 2025-11-03T12:24 | 18206 | 72 | -59.9 | |||
| 2025-11-03T12:24 | 18293 | 71 | 260 | 27 | ||
| 2025-11-03T12:24 | 18501 | 69 | 258 | 23 | ||
| 2025-11-03T12:25 | 18696 | 67 | 259 | 21 | ||
| 2025-11-03T12:25 | 18809 | 65 | -58.4 | |||
| 2025-11-03T12:25 | 18888 | 65 | 247 | 21 | ||
| 2025-11-03T12:26 | 18918 | 64 | -57.0 | |||
| 2025-11-03T12:26 | 19097 | 62 | 252 | 25 | ||
| 2025-11-03T12:26 | 19107 | 62 | -57.4 | |||
| 2025-11-03T12:26 | 19242 | 61 | -55.3 | |||
| 2025-11-03T12:27 | 19366 | 60 | 236 | 22 | ||
| 2025-11-03T12:28 | 19742 | 56 | -55.3 | |||
| 2025-11-03T12:28 | 19774 | 56 | 241 | 20 | ||
| 2025-11-03T12:29 | 20158 | 53 | 246 | 23 | ||
| 2025-11-03T12:29 | 20207 | 52 | -54.4 | |||
| 2025-11-03T12:29 | 20309 | 52 | -53.5 | |||
| 2025-11-03T12:29 | 20435 | 51 | 242 | 16 | ||
| 2025-11-03T12:30 | 20639 | 49 | -54.6 | |||
| 2025-11-03T12:30 | 20693 | 49 | 239 | 18 | ||
| 2025-11-03T12:31 | 20837 | 48 | 241 | 18 | ||
| 2025-11-03T12:32 | 21215 | 45 | 252 | 22 | ||
| 2025-11-03T12:32 | 21463 | 43 | -53.5 | |||
| 2025-11-03T12:32 | 21525 | 43 | 265 | 28 | ||
| 2025-11-03T12:33 | 21693 | 42 | -50.9 | |||
| 2025-11-03T12:33 | 21736 | 41 | 248 | 20 | ||
| 2025-11-03T12:34 | 22078 | 39 | 209 | 20 | ||
| 2025-11-03T12:34 | 22195 | 39 | 211 | 24 | ||
| 2025-11-03T12:35 | 22605 | 36 | 227 | 24 | ||
| 2025-11-03T12:35 | 22642 | 36 | -56.3 | |||
| 2025-11-03T12:35 | 22786 | 35 | 237 | 24 | ||
| 2025-11-03T12:36 | 23104 | 33 | 246 | 22 | ||
| 2025-11-03T12:37 | 23464 | 32 | -52.3 | 224 | 24 | |
| 2025-11-03T12:38 | 23674 | 31 | 220 | 20 | ||
| 2025-11-03T12:38 | 23843 | 30 | -52.5 | |||
| 2025-11-03T12:39 | 24104 | 29 | 207 | 25 | ||
| 2025-11-03T12:39 | 24287 | 28 | -54.7 | |||
| 2025-11-03T12:40 | 24520 | 27 | 226 | 24 | ||
| 2025-11-03T12:40 | 24740 | 26 | -53.3 | |||
| 2025-11-03T12:41 | 24866 | 25 | 238 | 21 | ||
| 2025-11-03T12:41 | 25074 | 25 | -51.8 | 247 | 21 | |
| 2025-11-03T12:42 | 25291 | 24 | 249 | 20 | ||
| 2025-11-03T12:42 | 25461 | 23 | -46.3 | |||
| 2025-11-03T12:42 | 25547 | 23 | 219 | 14 | ||
| 2025-11-03T12:43 | 25957 | 22 | 210 | 16 | ||
| 2025-11-03T12:44 | 26398 | 20 | 231 | 13 | ||
| 2025-11-03T12:45 | 26560 | 20 | -52.7 | |||
| 2025-11-03T12:45 | 26606 | 20 | -52.4 | 257 | 15 | |
| 2025-11-03T23:30 | 18 | 1026 | 6.7 | 0.8 | 150 | 2 |
| 2025-11-03T23:30 | 22 | 1025 | 7.1 | 0.5 | 0 | 0 |
| 2025-11-03T23:30 | 26 | 1025 | 7.6 | 0.8 | ||
| 2025-11-03T23:30 | 44 | 1023 | 6.3 | -1.1 | ||
| 2025-11-03T23:30 | 113 | 1014 | 171 | 3 | ||
| 2025-11-03T23:30 | 136 | 1011 | 5.8 | -2.1 | ||
| 2025-11-03T23:31 | 212 | 1002 | 6.0 | -2.6 | ||
| 2025-11-03T23:31 | 469 | 971 | 219 | 6 | ||
| 2025-11-03T23:32 | 794 | 932 | 230 | 3 | ||
| 2025-11-03T23:33 | 955 | 914 | -0.7 | -4.1 | ||
| 2025-11-03T23:33 | 1168 | 890 | 260 | 8 | ||
| 2025-11-03T23:34 | 1398 | 864 | -4.3 | -6.1 | ||
| 2025-11-03T23:34 | 1464 | 857 | -4.7 | -7.5 | ||
| 2025-11-03T23:34 | 1512 | 852 | 267 | 3 | ||
| 2025-11-03T23:34 | 1530 | 850 | -3.3 | -12.2 | ||
| 2025-11-03T23:35 | 1600 | 842 | 282 | 4 | ||
| 2025-11-03T23:35 | 1623 | 840 | -2.9 | -15.9 | ||
| 2025-11-03T23:35 | 1680 | 834 | -1.4 | -25.5 | ||
| 2025-11-03T23:35 | 1756 | 826 | -0.8 | -34.0 | ||
| 2025-11-03T23:35 | 1767 | 825 | 267 | 8 | ||
| 2025-11-03T23:36 | 1969 | 804 | 267 | 8 | ||
| 2025-11-03T23:36 | 2086 | 792 | -2.8 | -32.6 | ||
| 2025-11-03T23:36 | 2286 | 772 | -3.8 | -23.5 | ||
| 2025-11-03T23:37 | 2322 | 769 | 260 | 10 | ||
| 2025-11-03T23:37 | 2424 | 759 | -3.1 | -24.1 | ||
| 2025-11-03T23:37 | 2609 | 741 | -3.8 | -23.0 | ||
| 2025-11-03T23:38 | 2686 | 734 | 249 | 12 | ||
| 2025-11-03T23:38 | 2753 | 728 | -3.6 | -22.3 | ||
| 2025-11-03T23:38 | 2882 | 716 | 256 | 12 | ||
| 2025-11-03T23:39 | 3121 | 695 | -4.0 | -24.3 | ||
| 2025-11-03T23:39 | 3171 | 690 | 251 | 11 | ||
| 2025-11-03T23:40 | 3411 | 670 | 260 | 10 | ||
| 2025-11-03T23:40 | 3501 | 662 | -6.0 | -27.2 | ||
| 2025-11-03T23:40 | 3612 | 653 | 273 | 8 | ||
| 2025-11-03T23:40 | 3739 | 642 | 267 | 8 | ||
| 2025-11-03T23:41 | 3935 | 626 | 272 | 9 | ||
| 2025-11-03T23:42 | 4105 | 613 | 284 | 9 | ||
| 2025-11-03T23:42 | 4295 | 598 | -10.9 | -30.1 | ||
| 2025-11-03T23:42 | 4353 | 593 | 258 | 7 | ||
| 2025-11-03T23:43 | 4477 | 584 | 265 | 8 | ||
| 2025-11-03T23:43 | 4642 | 571 | -13.7 | -29.1 | ||
| 2025-11-03T23:44 | 4823 | 558 | 272 | 8 | ||
| 2025-11-03T23:44 | 4829 | 557 | -14.7 | -35.7 | ||
| 2025-11-03T23:44 | 5012 | 544 | -16.0 | -39.8 | 282 | 8 |
| 2025-11-03T23:45 | 5231 | 528 | 288 | 9 | ||
| 2025-11-03T23:45 | 5371 | 519 | -18.8 | -34.4 | ||
| 2025-11-03T23:45 | 5482 | 511 | -19.1 | -41.4 | ||
| 2025-11-03T23:46 | 5584 | 504 | 294 | 10 | ||
| 2025-11-03T23:46 | 5731 | 494 | -21.0 | -41.5 | ||
| 2025-11-03T23:46 | 5847 | 486 | 288 | 10 | ||
| 2025-11-03T23:46 | 5865 | 485 | -22.1 | -39.0 | ||
| 2025-11-03T23:47 | 6005 | 476 | 292 | 11 | ||
| 2025-11-03T23:47 | 6160 | 466 | 282 | 8 | ||
| 2025-11-03T23:47 | 6202 | 463 | -24.8 | -40.0 | ||
| 2025-11-03T23:48 | 6305 | 457 | -25.5 | -45.2 | ||
| 2025-11-03T23:48 | 6426 | 449 | 299 | 10 | ||
| 2025-11-03T23:48 | 6538 | 442 | -27.4 | -43.6 | ||
| 2025-11-03T23:49 | 6721 | 431 | 306 | 11 | ||
| 2025-11-03T23:49 | 6882 | 421 | 307 | 14 | ||
| 2025-11-03T23:50 | 7001 | 414 | 297 | 11 | ||
| 2025-11-03T23:50 | 7281 | 398 | -34.1 | -45.1 | ||
| 2025-11-03T23:51 | 7359 | 394 | 302 | 13 | ||
| 2025-11-03T23:51 | 7598 | 381 | -37.1 | -46.5 | ||
| 2025-11-03T23:52 | 7705 | 375 | -37.3 | -51.2 | ||
| 2025-11-03T23:52 | 7731 | 373 | 289 | 11 | ||
| 2025-11-03T23:53 | 8116 | 353 | 297 | 10 | ||
| 2025-11-03T23:53 | 8253 | 346 | -40.0 | -59.2 | ||
| 2025-11-03T23:54 | 8456 | 336 | 289 | 12 | ||
| 2025-11-03T23:54 | 8808 | 319 | 296 | 12 | ||
| 2025-11-03T23:55 | 9024 | 309 | 294 | 14 | ||
| 2025-11-03T23:56 | 9411 | 291 | 286 | 14 | ||
| 2025-11-03T23:57 | 9596 | 283 | -50.4 | |||
| 2025-11-03T23:57 | 9825 | 273 | 279 | 14 | ||
| 2025-11-03T23:58 | 10220 | 257 | 274 | 17 | ||
| 2025-11-03T23:59 | 10564 | 243 | 272 | 17 | ||
| 2025-11-04T00:00 | 10814 | 234 | 270 | 19 | ||
| 2025-11-04T00:00 | 10954 | 229 | -59.3 | |||
| 2025-11-04T00:01 | 11142 | 222 | 268 | 21 | ||
| 2025-11-04T00:01 | 11362 | 214 | 265 | 20 | ||
| 2025-11-04T00:02 | 11453 | 211 | -60.5 | |||
| 2025-11-04T00:02 | 11574 | 207 | 253 | 20 | ||
| 2025-11-04T00:02 | 11677 | 204 | -60.5 | |||
| 2025-11-04T00:03 | 11810 | 199 | -59.3 | |||
| 2025-11-04T00:03 | 11874 | 197 | 254 | 22 | ||
| 2025-11-04T00:03 | 11960 | 195 | -59.9 | |||
| 2025-11-04T00:03 | 12029 | 193 | 254 | 21 | ||
| 2025-11-04T00:04 | 12218 | 187 | 248 | 22 | ||
| 2025-11-04T00:05 | 12397 | 182 | 251 | 27 | ||
| 2025-11-04T00:05 | 12447 | 180 | -58.1 | |||
| 2025-11-04T00:06 | 12728 | 172 | 261 | 23 | ||
| 2025-11-04T00:06 | 12984 | 165 | -57.9 | |||
| 2025-11-04T00:07 | 13047 | 164 | 253 | 27 | ||
| 2025-11-04T00:07 | 13230 | 159 | -57.0 | |||
| 2025-11-04T00:08 | 13361 | 156 | 248 | 28 | ||
| 2025-11-04T00:08 | 13583 | 150 | -57.5 | |||
| 2025-11-04T00:09 | 13680 | 148 | 247 | 28 | ||
| 2025-11-04T00:10 | 14001 | 141 | 249 | 29 | ||
| 2025-11-04T00:11 | 14322 | 134 | 255 | 29 | ||
| 2025-11-04T00:12 | 14643 | 127 | 248 | 28 | ||
| 2025-11-04T00:12 | 14679 | 126 | -59.3 | |||
| 2025-11-04T00:12 | 14843 | 123 | -59.2 | |||
| 2025-11-04T00:13 | 14953 | 121 | 251 | 30 | ||
| 2025-11-04T00:14 | 15272 | 115 | 252 | 27 | ||
| 2025-11-04T00:14 | 15309 | 114 | -59.2 | |||
| 2025-11-04T00:15 | 15596 | 109 | 245 | 24 | ||
| 2025-11-04T00:15 | 15640 | 108 | -60.0 | |||
| 2025-11-04T00:16 | 15928 | 103 | 249 | 25 | ||
| 2025-11-04T00:16 | 16139 | 100 | -60.0 | |||
| 2025-11-04T00:16 | 16200 | 99 | 244 | 25 | ||
| 2025-11-04T00:17 | 16484 | 95 | -58.6 | |||
| 2025-11-04T00:17 | 16518 | 94 | 249 | 27 | ||
| 2025-11-04T00:18 | 16591 | 93 | -57.5 | |||
| 2025-11-04T00:18 | 16774 | 90 | 247 | 22 | ||
| 2025-11-04T00:19 | 16935 | 88 | -57.8 | |||
| 2025-11-04T00:19 | 17089 | 86 | 247 | 25 | ||
| 2025-11-04T00:20 | 17367 | 82 | -57.5 | |||
| 2025-11-04T00:20 | 17380 | 82 | 246 | 25 | ||
| 2025-11-04T00:20 | 17617 | 79 | 250 | 24 | ||
| 2025-11-04T00:21 | 17673 | 78 | -58.5 | |||
| 2025-11-04T00:21 | 17843 | 76 | -59.1 | |||
| 2025-11-04T00:21 | 18018 | 74 | 241 | 24 | ||
| 2025-11-04T00:22 | 18179 | 72 | -57.7 | |||
| 2025-11-04T00:22 | 18270 | 71 | 251 | 21 | ||
| 2025-11-04T00:22 | 18432 | 70 | -57.2 | |||
| 2025-11-04T00:23 | 18608 | 68 | 254 | 27 | ||
| 2025-11-04T00:24 | 18817 | 65 | -53.9 | |||
| 2025-11-04T00:24 | 18829 | 65 | 263 | 17 | ||
| 2025-11-04T00:24 | 19080 | 63 | 248 | 13 | ||
| 2025-11-04T00:25 | 19277 | 61 | -55.3 | |||
| 2025-11-04T00:25 | 19348 | 60 | 243 | 15 | ||
| 2025-11-04T00:26 | 19675 | 57 | 230 | 16 | ||
| 2025-11-04T00:26 | 19732 | 57 | -55.9 | |||
| 2025-11-04T00:27 | 20061 | 54 | 219 | 23 | ||
| 2025-11-04T00:28 | 20371 | 51 | 229 | 27 | ||
| 2025-11-04T00:28 | 20395 | 51 | -59.5 | |||
| 2025-11-04T00:28 | 20560 | 50 | 242 | 25 | ||
| 2025-11-04T00:28 | 20660 | 49 | -58.5 | |||
| 2025-11-04T00:29 | 20872 | 47 | 259 | 25 | ||
| 2025-11-04T00:30 | 21286 | 44 | 257 | 19 | ||
| 2025-11-04T00:30 | 21515 | 43 | 258 | 17 | ||
| 2025-11-04T00:31 | 21699 | 42 | -55.4 | |||
| 2025-11-04T00:31 | 21806 | 41 | 241 | 13 | ||
| 2025-11-04T00:32 | 22125 | 39 | 233 | 17 | ||
| 2025-11-04T00:32 | 22177 | 39 | -55.7 | |||
| 2025-11-04T00:33 | 22309 | 38 | 240 | 17 | ||
| 2025-11-04T00:33 | 22395 | 37 | -52.4 | |||
| 2025-11-04T00:33 | 22573 | 36 | -50.1 | |||
| 2025-11-04T00:33 | 22591 | 36 | 238 | 16 | ||
| 2025-11-04T00:34 | 23020 | 34 | 230 | 16 | ||
| 2025-11-04T00:35 | 23375 | 32 | 258 | 14 | ||
| 2025-11-04T00:35 | 23454 | 32 | -51.7 | |||
| 2025-11-04T00:36 | 23750 | 30 | 254 | 19 | ||
| 2025-11-04T00:37 | 24057 | 29 | 265 | 9 | ||
| 2025-11-04T00:37 | 24081 | 29 | -51.1 | |||
| 2025-11-04T00:38 | 24318 | 28 | -50.9 | 231 | 11 | |
| 2025-11-04T11:30 | 18 | 1023 | 7.8 | 3.5 | 90 | 1 |
| 2025-11-04T11:30 | 22 | 1022 | 8.0 | 3.1 | 0 | 0 |
| 2025-11-04T11:30 | 75 | 1016 | 8.4 | 2.2 | ||
| 2025-11-04T11:31 | 206 | 1000 | 8.7 | 1.1 | ||
| 2025-11-04T11:31 | 297 | 989 | 91 | 3 | ||
| 2025-11-04T11:31 | 414 | 975 | 7.3 | -0.2 | ||
| 2025-11-04T11:31 | 456 | 970 | 34 | 1 | ||
| 2025-11-04T11:32 | 578 | 955 | 45 | 3 | ||
| 2025-11-04T11:32 | 693 | 942 | 328 | 1 | ||
| 2025-11-04T11:32 | 761 | 934 | 246 | 3 | ||
| 2025-11-04T11:33 | 936 | 914 | 247 | 3 | ||
| 2025-11-04T11:33 | 1048 | 902 | 205 | 4 | ||
| 2025-11-04T11:33 | 1095 | 896 | 1.1 | -2.7 | ||
| 2025-11-04T11:34 | 1190 | 886 | 0.2 | -3.2 | ||
| 2025-11-04T11:34 | 1195 | 885 | 242 | 6 | ||
| 2025-11-04T11:35 | 1308 | 873 | -0.5 | -3.7 | ||
| 2025-11-04T11:35 | 1373 | 866 | 244 | 10 | ||
| 2025-11-04T11:36 | 1597 | 842 | 253 | 13 | ||
| 2025-11-04T11:36 | 1774 | 823 | -4.5 | -5.2 | ||
| 2025-11-04T11:37 | 1791 | 821 | -4.6 | -7.7 | ||
| 2025-11-04T11:37 | 1825 | 818 | -1.6 | -21.7 | ||
| 2025-11-04T11:37 | 1836 | 817 | -0.6 | -24.1 | ||
| 2025-11-04T11:37 | 1919 | 808 | 256 | 16 | ||
| 2025-11-04T11:37 | 2065 | 794 | -0.3 | -44.3 | ||
| 2025-11-04T11:37 | 2140 | 786 | -0.5 | -40.7 | ||
| 2025-11-04T11:38 | 2329 | 768 | 265 | 13 | ||
| 2025-11-04T11:38 | 2428 | 758 | -2.3 | -31.0 | ||
| 2025-11-04T11:39 | 2796 | 724 | 259 | 14 | ||
| 2025-11-04T11:40 | 3140 | 693 | -7.8 | -24.0 | ||
| 2025-11-04T11:40 | 3243 | 683 | 262 | 17 | ||
| 2025-11-04T11:40 | 3353 | 674 | -9.1 | -21.1 | ||
| 2025-11-04T11:40 | 3431 | 667 | -8.8 | -20.9 | ||
| 2025-11-04T11:41 | 3530 | 659 | -8.0 | -25.5 | ||
| 2025-11-04T11:41 | 3594 | 653 | 256 | 17 | ||
| 2025-11-04T11:42 | 3798 | 636 | -10.4 | -26.7 | ||
| 2025-11-04T11:42 | 3904 | 628 | 252 | 13 | ||
| 2025-11-04T11:42 | 3930 | 625 | -11.5 | -27.6 | ||
| 2025-11-04T11:43 | 4151 | 608 | -13.2 | -28.3 | ||
| 2025-11-04T11:43 | 4236 | 601 | -13.7 | -29.1 | 242 | 12 |
| 2025-11-04T11:43 | 4393 | 589 | -14.9 | -31.5 | ||
| 2025-11-04T11:44 | 4548 | 577 | -16.0 | -32.0 | ||
| 2025-11-04T11:44 | 4590 | 573 | 247 | 15 | ||
| 2025-11-04T11:44 | 4692 | 566 | -17.4 | -28.6 | ||
| 2025-11-04T11:45 | 4937 | 547 | -18.9 | -30.6 | ||
| 2025-11-04T11:45 | 4943 | 547 | 237 | 18 | ||
| 2025-11-04T11:45 | 5118 | 534 | -19.5 | -32.0 | ||
| 2025-11-04T11:46 | 5279 | 523 | 244 | 16 | ||
| 2025-11-04T11:47 | 5505 | 507 | -22.4 | -37.1 | ||
| 2025-11-04T11:47 | 5608 | 500 | 235 | 18 | ||
| 2025-11-04T11:47 | 5646 | 497 | -23.1 | -39.4 | ||
| 2025-11-04T11:47 | 5792 | 487 | -24.1 | -37.8 | ||
| 2025-11-04T11:48 | 5929 | 478 | 244 | 21 | ||
| 2025-11-04T11:49 | 6163 | 463 | -27.0 | -38.4 | ||
| 2025-11-04T11:49 | 6239 | 458 | 242 | 19 | ||
| 2025-11-04T11:50 | 6469 | 444 | 238 | 21 | ||
| 2025-11-04T11:51 | 6785 | 425 | 227 | 20 | ||
| 2025-11-04T11:51 | 6890 | 418 | -32.6 | -45.7 | ||
| 2025-11-04T11:52 | 7099 | 406 | 227 | 20 | ||
| 2025-11-04T11:52 | 7272 | 396 | -35.8 | -46.3 | ||
| 2025-11-04T11:53 | 7404 | 389 | 231 | 20 | ||
| 2025-11-04T11:53 | 7455 | 386 | -36.9 | -51.7 | ||
| 2025-11-04T11:53 | 7545 | 381 | 234 | 22 | ||
| 2025-11-04T11:54 | 7683 | 373 | -38.0 | -52.3 | ||
| 2025-11-04T11:54 | 7841 | 365 | 230 | 20 | ||
| 2025-11-04T11:55 | 7995 | 357 | -40.0 | -55.3 | ||
| 2025-11-04T11:55 | 8169 | 348 | 228 | 19 | ||
| 2025-11-04T11:56 | 8507 | 331 | 233 | 19 | ||
| 2025-11-04T11:57 | 8790 | 317 | -46.8 | |||
| 2025-11-04T11:57 | 8856 | 314 | 227 | 20 | ||
| 2025-11-04T11:58 | 9086 | 303 | -48.7 | |||
| 2025-11-04T11:58 | 9221 | 297 | 231 | 21 | ||
| 2025-11-04T11:59 | 9418 | 288 | -50.9 | |||
| 2025-11-04T11:59 | 9609 | 280 | 242 | 22 | ||
| 2025-11-04T12:00 | 10004 | 263 | 242 | 22 | ||
| 2025-11-04T12:00 | 10121 | 258 | -54.6 | |||
| 2025-11-04T12:01 | 10275 | 252 | 249 | 25 | ||
| 2025-11-04T12:02 | 10551 | 241 | -55.9 | |||
| 2025-11-04T12:02 | 10567 | 241 | 251 | 25 | ||
| 2025-11-04T12:03 | 10845 | 231 | 248 | 26 | ||
| 2025-11-04T12:03 | 10937 | 227 | -56.3 | |||
| 2025-11-04T12:04 | 11088 | 222 | 255 | 30 | ||
| 2025-11-04T12:05 | 11297 | 215 | -55.2 | |||
| 2025-11-04T12:05 | 11350 | 213 | 253 | 25 | ||
| 2025-11-04T12:06 | 11704 | 201 | 239 | 25 | ||
| 2025-11-04T12:06 | 11804 | 198 | -56.7 | |||
| 2025-11-04T12:06 | 11836 | 197 | 243 | 28 | ||
| 2025-11-04T12:06 | 12003 | 192 | -56.8 | |||
| 2025-11-04T12:07 | 12064 | 190 | 249 | 34 | ||
| 2025-11-04T12:07 | 12159 | 187 | -56.6 | |||
| 2025-11-04T12:07 | 12209 | 186 | 251 | 32 | ||
| 2025-11-04T12:07 | 12252 | 185 | -55.4 | |||
| 2025-11-04T12:08 | 12392 | 181 | -55.7 | |||
| 2025-11-04T12:08 | 12435 | 180 | 250 | 32 | ||
| 2025-11-04T12:08 | 12502 | 178 | -54.7 | |||
| 2025-11-04T12:09 | 12592 | 175 | 254 | 35 | ||
| 2025-11-04T12:10 | 12868 | 168 | -53.9 | 247 | 35 | |
| 2025-11-04T12:10 | 13142 | 161 | 255 | 35 | ||
| 2025-11-04T12:11 | 13315 | 156 | -55.4 | |||
| 2025-11-04T12:11 | 13528 | 151 | 259 | 31 | ||
| 2025-11-04T12:12 | 13876 | 143 | 261 | 33 | ||
| 2025-11-04T12:13 | 14020 | 140 | -56.4 | |||
| 2025-11-04T12:13 | 14178 | 137 | 255 | 32 | ||
| 2025-11-04T12:14 | 14253 | 135 | -55.4 | |||
| 2025-11-04T12:14 | 14399 | 132 | -53.9 | |||
| 2025-11-04T12:14 | 14404 | 132 | 261 | 32 | ||
| 2025-11-04T12:15 | 14606 | 128 | -54.6 | |||
| 2025-11-04T12:15 | 14740 | 125 | 259 | 25 | ||
| 2025-11-04T12:16 | 15089 | 118 | 255 | 25 | ||
| 2025-11-04T12:17 | 15229 | 116 | -57.6 | |||
| 2025-11-04T12:17 | 15266 | 115 | 249 | 30 | ||
| 2025-11-04T12:18 | 15551 | 110 | 257 | 33 | ||
| 2025-11-04T12:18 | 15643 | 108 | -56.5 | |||
| 2025-11-04T12:19 | 15816 | 106 | 247 | 29 | ||
| 2025-11-04T12:19 | 15823 | 105 | -56.5 | |||
| 2025-11-04T12:20 | 16114 | 101 | 256 | 29 | ||
| 2025-11-04T12:20 | 16136 | 100 | -56.8 | |||
| 2025-11-04T12:20 | 16231 | 99 | 256 | 26 | ||
| 2025-11-04T12:21 | 16517 | 94 | -59.3 | |||
| 2025-11-04T12:21 | 16593 | 93 | 249 | 27 | ||
| 2025-11-04T12:22 | 16809 | 90 | 251 | 32 | ||
| 2025-11-04T12:22 | 16932 | 88 | -57.0 | |||
| 2025-11-04T12:23 | 17158 | 85 | 265 | 32 | ||
| 2025-11-04T12:23 | 17447 | 82 | 262 | 23 | ||
| 2025-11-04T12:23 | 17479 | 81 | -56.8 | |||
| 2025-11-04T12:24 | 17628 | 79 | 244 | 23 | ||
| 2025-11-04T12:25 | 17982 | 75 | 247 | 24 | ||
| 2025-11-04T12:26 | 18243 | 72 | -56.4 | |||
| 2025-11-04T12:26 | 18359 | 71 | 246 | 24 | ||
| 2025-11-04T12:27 | 18718 | 67 | 248 | 24 | ||
| 2025-11-04T12:27 | 18909 | 65 | 249 | 26 | ||
| 2025-11-04T12:28 | 18940 | 64 | -57.0 | |||
| 2025-11-04T12:28 | 19057 | 63 | 248 | 26 | ||
| 2025-11-04T12:29 | 19314 | 61 | 234 | 20 | ||
| 2025-11-04T12:29 | 19598 | 58 | 247 | 22 | ||
| 2025-11-04T12:30 | 19607 | 58 | -54.0 | |||
| 2025-11-04T12:30 | 19774 | 57 | -53.0 | |||
| 2025-11-04T12:30 | 19880 | 56 | 243 | 23 | ||
| 2025-11-04T12:31 | 20057 | 54 | 250 | 21 | ||
| 2025-11-04T12:31 | 20262 | 52 | -50.7 | |||
| 2025-11-04T12:32 | 20387 | 51 | 263 | 11 | ||
| 2025-11-04T12:32 | 20722 | 49 | 223 | 12 | ||
| 2025-11-04T12:33 | 20989 | 47 | -54.2 | |||
| 2025-11-04T12:33 | 21114 | 46 | 212 | 16 | ||
| 2025-11-04T12:34 | 21518 | 43 | 231 | 20 | ||
| 2025-11-04T12:35 | 21592 | 43 | -54.7 | |||
| 2025-11-04T12:35 | 21899 | 41 | 257 | 17 | ||
| 2025-11-04T12:36 | 22043 | 40 | -53.2 | |||
| 2025-11-04T12:36 | 22245 | 39 | 249 | 13 | ||
| 2025-11-04T12:37 | 22483 | 37 | 239 | 12 | ||
| 2025-11-04T12:37 | 22555 | 37 | -51.2 | |||
| 2025-11-04T12:37 | 22678 | 36 | -50.6 | |||
| 2025-11-04T12:38 | 22843 | 35 | -49.2 | |||
| 2025-11-04T12:38 | 22883 | 35 | 233 | 11 | ||
| 2025-11-04T12:39 | 23328 | 33 | 245 | 13 | ||
| 2025-11-04T12:40 | 23549 | 32 | 251 | 12 | ||
| 2025-11-04T12:40 | 23846 | 30 | 245 | 16 | ||
| 2025-11-04T12:41 | 24070 | 29 | -51.2 | |||
| 2025-11-04T12:41 | 24182 | 29 | -50.3 | |||
| 2025-11-04T12:41 | 24226 | 28 | 259 | 14 | ||
| 2025-11-04T12:42 | 24364 | 28 | 249 | 16 | ||
| 2025-11-04T12:42 | 24486 | 27 | -49.2 | |||
| 2025-11-04T12:42 | 24532 | 27 | 244 | 8 | ||
| 2025-11-04T12:43 | 24633 | 27 | 224 | 4 | ||
| 2025-11-04T12:43 | 24708 | 26 | -47.4 | |||
| 2025-11-04T12:43 | 24758 | 26 | 259 | 3 | ||
| 2025-11-04T12:44 | 25009 | 25 | 227 | 3 | ||
| 2025-11-04T12:44 | 25171 | 25 | 209 | 5 | ||
| 2025-11-04T12:44 | 25304 | 24 | 200 | 9 | ||
| 2025-11-04T12:45 | 25493 | 23 | -51.8 | |||
| 2025-11-04T12:45 | 25633 | 23 | 241 | 9 | ||
| 2025-11-04T12:46 | 25831 | 22 | -52.2 | 227 | 11 | |
| 2025-11-04T23:30 | 18 | 1021 | 11.7 | 6.4 | 140 | 3 |
| 2025-11-04T23:30 | 23 | 1021 | 12.1 | 6.2 | 0 | 0 |
| 2025-11-04T23:30 | 28 | 1020 | 12.5 | 6.5 | ||
| 2025-11-04T23:30 | 55 | 1017 | 11.5 | 5.6 | ||
| 2025-11-04T23:30 | 65 | 1016 | 140 | 3 | ||
| 2025-11-04T23:30 | 124 | 1009 | 11.4 | 5.1 | ||
| 2025-11-04T23:31 | 187 | 1001 | 11.5 | 5.2 | ||
| 2025-11-04T23:31 | 404 | 975 | 130 | 1 | ||
| 2025-11-04T23:32 | 577 | 955 | 8.0 | 4.2 | 222 | 3 |
| 2025-11-04T23:32 | 809 | 929 | 263 | 6 | ||
| 2025-11-04T23:33 | 953 | 913 | 5.2 | 2.9 | ||
| 2025-11-04T23:33 | 970 | 911 | 267 | 8 | ||
| 2025-11-04T23:34 | 1324 | 872 | 276 | 8 | ||
| 2025-11-04T23:34 | 1454 | 858 | 1.0 | 0.9 | ||
| 2025-11-04T23:35 | 1656 | 837 | 272 | 12 | ||
| 2025-11-04T23:35 | 1752 | 826 | -1.0 | -1.7 | ||
| 2025-11-04T23:36 | 1976 | 803 | -1.7 | -3.0 | ||
| 2025-11-04T23:36 | 2019 | 799 | 271 | 11 | ||
| 2025-11-04T23:36 | 2194 | 782 | -2.5 | -4.5 | ||
| 2025-11-04T23:36 | 2281 | 773 | -2.4 | -5.5 | ||
| 2025-11-04T23:37 | 2357 | 766 | 268 | 13 | ||
| 2025-11-04T23:37 | 2484 | 754 | -3.5 | -7.1 | ||
| 2025-11-04T23:37 | 2568 | 746 | -4.1 | -8.4 | ||
| 2025-11-04T23:38 | 2647 | 738 | -4.5 | -10.5 | ||
| 2025-11-04T23:38 | 2692 | 734 | 273 | 17 | ||
| 2025-11-04T23:38 | 2865 | 718 | -6.1 | -12.6 | ||
| 2025-11-04T23:38 | 2951 | 710 | 276 | 19 | ||
| 2025-11-04T23:39 | 2973 | 708 | -6.2 | -21.8 | ||
| 2025-11-04T23:39 | 3096 | 697 | -6.0 | -30.9 | ||
| 2025-11-04T23:39 | 3135 | 693 | -5.7 | -32.5 | ||
| 2025-11-04T23:39 | 3229 | 685 | 286 | 14 | ||
| 2025-11-04T23:40 | 3585 | 655 | 275 | 15 | ||
| 2025-11-04T23:41 | 3706 | 644 | -9.8 | -27.6 | ||
| 2025-11-04T23:41 | 3965 | 623 | 269 | 16 | ||
| 2025-11-04T23:42 | 4115 | 611 | -12.6 | -29.0 | ||
| 2025-11-04T23:42 | 4129 | 610 | 269 | 17 | ||
| 2025-11-04T23:43 | 4519 | 579 | -15.2 | -32.7 | ||
| 2025-11-04T23:43 | 4526 | 579 | 275 | 17 | ||
| 2025-11-04T23:43 | 4795 | 558 | -17.0 | -35.2 | ||
| 2025-11-04T23:44 | 4890 | 551 | 273 | 17 | ||
| 2025-11-04T23:44 | 5082 | 537 | -18.9 | -34.5 | ||
| 2025-11-04T23:45 | 5226 | 527 | 268 | 21 | ||
| 2025-11-04T23:45 | 5311 | 521 | -20.2 | -37.4 | ||
| 2025-11-04T23:46 | 5560 | 504 | 270 | 20 | ||
| 2025-11-04T23:46 | 5793 | 488 | -24.7 | -38.7 | ||
| 2025-11-04T23:47 | 5876 | 482 | 275 | 22 | ||
| 2025-11-04T23:47 | 5993 | 475 | -25.7 | -41.2 | ||
| 2025-11-04T23:47 | 6155 | 464 | 273 | 22 | ||
| 2025-11-04T23:48 | 6310 | 454 | -27.2 | -51.6 | ||
| 2025-11-04T23:48 | 6527 | 441 | 269 | 25 | ||
| 2025-11-04T23:49 | 6911 | 418 | 269 | 24 | ||
| 2025-11-04T23:50 | 6949 | 415 | -31.8 | -56.3 | ||
| 2025-11-04T23:50 | 7187 | 402 | -33.1 | -54.4 | ||
| 2025-11-04T23:50 | 7269 | 397 | 270 | 26 | ||
| 2025-11-04T23:51 | 7599 | 379 | -36.8 | -50.4 | ||
| 2025-11-04T23:51 | 7636 | 377 | 272 | 29 | ||
| 2025-11-04T23:52 | 7717 | 372 | -37.6 | -54.2 | ||
| 2025-11-04T23:52 | 7838 | 366 | -38.5 | -53.5 | ||
| 2025-11-04T23:52 | 7996 | 357 | 270 | 29 | ||
| 2025-11-04T23:52 | 8007 | 357 | -40.0 | -50.1 | ||
| 2025-11-04T23:53 | 8324 | 341 | 272 | 32 | ||
| 2025-11-04T23:54 | 8464 | 333 | 273 | 32 | ||
| 2025-11-04T23:54 | 8588 | 327 | -44.5 | |||
| 2025-11-04T23:55 | 8774 | 318 | 267 | 32 | ||
| 2025-11-04T23:55 | 8892 | 313 | -46.6 | |||
| 2025-11-04T23:56 | 9081 | 304 | 271 | 33 | ||
| 2025-11-04T23:57 | 9402 | 289 | 268 | 34 | ||
| 2025-11-04T23:57 | 9520 | 284 | -50.5 | |||
| 2025-11-04T23:58 | 9750 | 274 | 267 | 36 | ||
| 2025-11-04T23:58 | 10003 | 264 | -53.3 | |||
| 2025-11-04T23:59 | 10117 | 259 | 266 | 35 | ||
| 2025-11-05T00:00 | 10494 | 244 | 263 | 37 | ||
| 2025-11-05T00:00 | 10593 | 241 | -56.2 | |||
| 2025-11-05T00:01 | 10831 | 232 | 264 | 38 | ||
| 2025-11-05T00:02 | 11156 | 220 | 263 | 38 | ||
| 2025-11-05T00:02 | 11205 | 218 | -58.8 | |||
| 2025-11-05T00:03 | 11477 | 209 | 259 | 40 | ||
| 2025-11-05T00:03 | 11575 | 206 | -58.8 | |||
| 2025-11-05T00:04 | 11815 | 198 | 259 | 40 | ||
| 2025-11-05T00:04 | 11850 | 197 | -59.3 | |||
| 2025-11-05T00:04 | 12058 | 191 | -59.4 | 266 | 40 | |
| 2025-11-05T00:05 | 12262 | 184 | 260 | 37 | ||
| 2025-11-05T00:05 | 12340 | 182 | -59.9 | |||
| 2025-11-05T00:06 | 12591 | 175 | 263 | 40 | ||
| 2025-11-05T00:06 | 12691 | 172 | -58.2 | |||
| 2025-11-05T00:07 | 12924 | 166 | 261 | 37 | ||
| 2025-11-05T00:08 | 13157 | 160 | -57.2 | |||
| 2025-11-05T00:08 | 13240 | 158 | 263 | 41 | ||
| 2025-11-05T00:09 | 13557 | 150 | 262 | 40 | ||
| 2025-11-05T00:10 | 13829 | 144 | 261 | 41 | ||
| 2025-11-05T00:10 | 14033 | 139 | -57.0 | |||
| 2025-11-05T00:11 | 14074 | 138 | 262 | 39 | ||
| 2025-11-05T00:12 | 14414 | 131 | 262 | 37 | ||
| 2025-11-05T00:12 | 14584 | 128 | -59.0 | |||
| 2025-11-05T00:13 | 14714 | 125 | -58.1 | |||
| 2025-11-05T00:13 | 14730 | 125 | 254 | 37 | ||
| 2025-11-05T00:13 | 14975 | 120 | -58.1 | |||
| 2025-11-05T00:14 | 15044 | 119 | 256 | 40 | ||
| 2025-11-05T00:15 | 15363 | 113 | 260 | 37 | ||
| 2025-11-05T00:15 | 15515 | 110 | 258 | 36 | ||
| 2025-11-05T00:15 | 15562 | 109 | -59.4 | |||
| 2025-11-05T00:16 | 15873 | 104 | 258 | 36 | ||
| 2025-11-05T00:16 | 15897 | 104 | -60.1 | |||
| 2025-11-05T00:17 | 16149 | 99 | 251 | 37 | ||
| 2025-11-05T00:17 | 16155 | 99 | -59.8 | |||
| 2025-11-05T00:17 | 16374 | 96 | -59.0 | |||
| 2025-11-05T00:18 | 16430 | 95 | 268 | 35 | ||
| 2025-11-05T00:18 | 16663 | 92 | 256 | 30 | ||
| 2025-11-05T00:19 | 16957 | 87 | 249 | 34 | ||
| 2025-11-05T00:20 | 17074 | 86 | -58.8 | |||
| 2025-11-05T00:20 | 17170 | 85 | 259 | 34 | ||
| 2025-11-05T00:20 | 17305 | 83 | -57.6 | |||
| 2025-11-05T00:21 | 17381 | 82 | 263 | 32 | ||
| 2025-11-05T00:21 | 17578 | 79 | -56.6 | |||
| 2025-11-05T00:22 | 17754 | 77 | 269 | 24 | ||
| 2025-11-05T00:22 | 18005 | 74 | 266 | 19 | ||
| 2025-11-05T00:23 | 18146 | 72 | -57.3 | |||
| 2025-11-05T00:23 | 18340 | 70 | 260 | 26 | ||
| 2025-11-05T00:23 | 18378 | 70 | -55.2 | |||
| 2025-11-05T00:24 | 18574 | 68 | 257 | 19 | ||
| 2025-11-05T00:24 | 18775 | 66 | 247 | 19 | ||
| 2025-11-05T00:24 | 18803 | 65 | -54.8 | |||
| 2025-11-05T00:25 | 19063 | 63 | -55.8 | |||
| 2025-11-05T00:25 | 19102 | 62 | 253 | 26 | ||
| 2025-11-05T00:26 | 19283 | 61 | -52.4 | |||
| 2025-11-05T00:26 | 19464 | 59 | 245 | 16 | ||
| 2025-11-05T00:27 | 19823 | 56 | -55.4 | |||
| 2025-11-05T00:27 | 19870 | 55 | 219 | 19 | ||
| 2025-11-05T00:28 | 19973 | 54 | -54.0 | |||
| 2025-11-05T00:28 | 20227 | 52 | -54.2 | |||
| 2025-11-05T00:28 | 20239 | 52 | 238 | 19 | ||
| 2025-11-05T00:29 | 20527 | 50 | 234 | 18 | ||
| 2025-11-05T00:30 | 20790 | 48 | -55.0 | |||
| 2025-11-05T00:30 | 20883 | 47 | 242 | 18 | ||
| 2025-11-05T00:31 | 21090 | 46 | 256 | 18 | ||
| 2025-11-05T00:32 | 21450 | 43 | 252 | 14 | ||
| 2025-11-05T00:32 | 21704 | 42 | -55.3 | 253 | 12 | |
| 2025-11-05T00:33 | 22072 | 39 | 243 | 20 | ||
| 2025-11-05T00:34 | 22411 | 37 | -51.1 | |||
| 2025-11-05T00:34 | 22447 | 37 | 263 | 13 | ||
| 2025-11-05T00:35 | 22863 | 35 | 234 | 13 | ||
| 2025-11-05T00:36 | 23107 | 33 | -52.8 | |||
| 2025-11-05T00:36 | 23205 | 33 | 229 | 13 | ||
| 2025-11-05T00:37 | 23486 | 32 | 193 | 15 | ||
| 2025-11-05T00:37 | 23637 | 31 | -50.6 | |||
| 2025-11-05T00:38 | 23851 | 30 | 211 | 13 | ||
| 2025-11-05T00:39 | 24232 | 28 | -52.4 | 241 | 10 | |
| 2025-11-05T00:39 | 24369 | 28 | -50.0 | |||
| 2025-11-05T00:40 | 24635 | 26 | 238 | 23 | ||
| 2025-11-05T00:40 | 24963 | 25 | 257 | 20 | ||
| 2025-11-05T00:41 | 25203 | 24 | -49.3 | |||
| 2025-11-05T00:41 | 25231 | 24 | 256 | 13 | ||
| 2025-11-05T00:42 | 25367 | 24 | -47.3 | 223 | 8 | |
| 2025-11-05T00:42 | 25442 | 23 | -47.8 | 211 | 9 | |
| 2025-11-05T11:30 | 18 | 1023 | 8.0 | 5.6 | 280 | 1 |
| 2025-11-05T11:30 | 21 | 1022 | 7.7 | 5.2 | 0 | 0 |
| 2025-11-05T11:30 | 35 | 1021 | 7.7 | 4.6 | ||
| 2025-11-05T11:30 | 52 | 1019 | 9.5 | 5.1 | ||
| 2025-11-05T11:30 | 139 | 1008 | 9.3 | 4.1 | ||
| 2025-11-05T11:30 | 160 | 1005 | 307 | 3 | ||
| 2025-11-05T11:31 | 348 | 983 | 329 | 6 | ||
| 2025-11-05T11:31 | 391 | 978 | 7.7 | 2.8 | ||
| 2025-11-05T11:32 | 668 | 945 | 334 | 5 | ||
| 2025-11-05T11:33 | 884 | 921 | 3.3 | 1.5 | ||
| 2025-11-05T11:33 | 889 | 920 | 323 | 3 | ||
| 2025-11-05T11:33 | 1063 | 900 | 298 | 5 | ||
| 2025-11-05T11:33 | 1069 | 900 | 2.3 | -3.2 | ||
| 2025-11-05T11:34 | 1235 | 881 | 255 | 4 | ||
| 2025-11-05T11:34 | 1241 | 881 | 1.6 | -5.8 | ||
| 2025-11-05T11:34 | 1297 | 875 | 1.4 | -3.9 | ||
| 2025-11-05T11:34 | 1325 | 872 | 232 | 4 | ||
| 2025-11-05T11:34 | 1365 | 867 | 1.1 | -5.8 | ||
| 2025-11-05T11:34 | 1410 | 862 | 1.3 | -4.8 | ||
| 2025-11-05T11:35 | 1510 | 852 | 0.7 | -7.8 | ||
| 2025-11-05T11:35 | 1553 | 847 | 0.5 | -10.6 | ||
| 2025-11-05T11:35 | 1622 | 840 | 276 | 8 | ||
| 2025-11-05T11:35 | 1644 | 838 | 0.3 | -17.9 | ||
| 2025-11-05T11:35 | 1692 | 833 | 0.9 | -22.9 | ||
| 2025-11-05T11:36 | 1945 | 807 | 284 | 13 | ||
| 2025-11-05T11:36 | 1978 | 803 | -0.1 | -28.1 | ||
| 2025-11-05T11:37 | 2263 | 775 | 260 | 13 | ||
| 2025-11-05T11:37 | 2305 | 771 | -0.6 | -30.9 | ||
| 2025-11-05T11:38 | 2499 | 752 | 249 | 13 | ||
| 2025-11-05T11:38 | 2549 | 748 | -1.0 | -32.6 | ||
| 2025-11-05T11:38 | 2707 | 733 | 254 | 14 | ||
| 2025-11-05T11:39 | 2799 | 725 | -2.6 | -30.1 | ||
| 2025-11-05T11:39 | 3048 | 702 | 259 | 15 | ||
| 2025-11-05T11:40 | 3204 | 689 | -5.4 | -24.9 | ||
| 2025-11-05T11:40 | 3375 | 674 | 249 | 18 | ||
| 2025-11-05T11:41 | 3440 | 668 | -6.4 | -27.5 | ||
| 2025-11-05T11:41 | 3708 | 645 | 262 | 18 | ||
| 2025-11-05T11:42 | 3867 | 632 | -9.5 | -32.9 | ||
| 2025-11-05T11:42 | 3878 | 631 | 262 | 18 | ||
| 2025-11-05T11:42 | 4081 | 615 | -11.0 | -31.3 | ||
| 2025-11-05T11:43 | 4137 | 610 | 261 | 20 | ||
| 2025-11-05T11:43 | 4160 | 609 | -11.5 | -29.0 | ||
| 2025-11-05T11:44 | 4448 | 586 | 269 | 20 | ||
| 2025-11-05T11:44 | 4664 | 570 | -15.3 | -30.9 | ||
| 2025-11-05T11:45 | 4796 | 560 | 269 | 19 | ||
| 2025-11-05T11:45 | 4830 | 557 | -16.2 | -39.1 | ||
| 2025-11-05T11:45 | 4968 | 547 | -17.4 | -32.8 | ||
| 2025-11-05T11:45 | 5096 | 538 | -18.7 | -27.0 | ||
| 2025-11-05T11:46 | 5142 | 535 | 265 | 19 | ||
| 2025-11-05T11:46 | 5234 | 528 | -19.7 | -27.1 | ||
| 2025-11-05T11:46 | 5285 | 524 | 262 | 21 | ||
| 2025-11-05T11:46 | 5308 | 523 | -20.1 | -30.0 | ||
| 2025-11-05T11:46 | 5394 | 517 | -20.5 | -31.7 | ||
| 2025-11-05T11:46 | 5446 | 513 | -20.9 | -29.0 | ||
| 2025-11-05T11:47 | 5631 | 500 | 265 | 20 | ||
| 2025-11-05T11:47 | 5648 | 499 | -22.5 | -30.1 | ||
| 2025-11-05T11:48 | 5833 | 487 | -24.0 | -31.3 | ||
| 2025-11-05T11:48 | 5968 | 478 | 264 | 23 | ||
| 2025-11-05T11:48 | 6012 | 475 | -25.6 | -31.6 | ||
| 2025-11-05T11:49 | 6299 | 456 | 260 | 22 | ||
| 2025-11-05T11:49 | 6463 | 446 | -29.4 | -35.8 | ||
| 2025-11-05T11:50 | 6591 | 438 | -30.2 | -38.8 | ||
| 2025-11-05T11:50 | 6622 | 436 | 258 | 23 | ||
| 2025-11-05T11:50 | 6670 | 433 | -30.8 | -40.5 | ||
| 2025-11-05T11:50 | 6728 | 430 | -30.6 | -46.8 | ||
| 2025-11-05T11:51 | 6937 | 417 | 267 | 24 | ||
| 2025-11-05T11:51 | 7096 | 408 | 269 | 25 | ||
| 2025-11-05T11:52 | 7173 | 404 | -33.6 | -48.9 | ||
| 2025-11-05T11:52 | 7280 | 398 | -34.3 | -47.5 | ||
| 2025-11-05T11:52 | 7376 | 392 | -35.0 | -46.2 | ||
| 2025-11-05T11:52 | 7402 | 391 | 267 | 26 | ||
| 2025-11-05T11:53 | 7560 | 382 | -35.8 | -51.7 | ||
| 2025-11-05T11:53 | 7722 | 373 | 267 | 27 | ||
| 2025-11-05T11:53 | 7728 | 373 | -36.8 | -53.0 | ||
| 2025-11-05T11:54 | 7902 | 363 | -37.3 | -55.1 | ||
| 2025-11-05T11:54 | 8052 | 356 | 266 | 30 | ||
| 2025-11-05T11:55 | 8176 | 349 | -38.5 | -58.8 | ||
| 2025-11-05T11:55 | 8229 | 347 | 265 | 31 | ||
| 2025-11-05T11:55 | 8368 | 340 | -40.0 | -59.2 | ||
| 2025-11-05T11:56 | 8586 | 329 | 265 | 32 | ||
| 2025-11-05T11:57 | 8921 | 313 | 262 | 30 | ||
| 2025-11-05T11:57 | 8949 | 312 | -44.5 | |||
| 2025-11-05T11:58 | 9271 | 297 | 262 | 33 | ||
| 2025-11-05T11:59 | 9606 | 282 | 261 | 31 | ||
| 2025-11-05T12:00 | 9843 | 272 | -50.4 | |||
| 2025-11-05T12:00 | 9906 | 270 | 255 | 33 | ||
| 2025-11-05T12:01 | 10146 | 260 | 254 | 35 | ||
| 2025-11-05T12:01 | 10230 | 256 | -52.3 | |||
| 2025-11-05T12:02 | 10444 | 248 | -52.9 | |||
| 2025-11-05T12:02 | 10455 | 248 | 252 | 35 | ||
| 2025-11-05T12:03 | 10786 | 235 | 248 | 35 | ||
| 2025-11-05T12:04 | 11101 | 224 | 247 | 41 | ||
| 2025-11-05T12:04 | 11305 | 217 | -58.0 | |||
| 2025-11-05T12:05 | 11435 | 212 | 246 | 45 | ||
| 2025-11-05T12:05 | 11599 | 207 | -58.7 | |||
| 2025-11-05T12:06 | 11784 | 201 | 246 | 46 | ||
| 2025-11-05T12:07 | 12109 | 191 | 248 | 46 | ||
| 2025-11-05T12:07 | 12347 | 184 | -61.4 | |||
| 2025-11-05T12:08 | 12446 | 181 | 254 | 49 | ||
| 2025-11-05T12:08 | 12502 | 179 | -61.0 | |||
| 2025-11-05T12:08 | 12632 | 175 | 260 | 48 | ||
| 2025-11-05T12:09 | 12667 | 174 | -59.5 | |||
| 2025-11-05T12:09 | 12807 | 170 | 258 | 40 | ||
| 2025-11-05T12:10 | 12999 | 165 | 245 | 43 | ||
| 2025-11-05T12:10 | 13009 | 165 | -57.9 | |||
| 2025-11-05T12:11 | 13296 | 158 | 252 | 47 | ||
| 2025-11-05T12:11 | 13511 | 152 | 253 | 43 | ||
| 2025-11-05T12:11 | 13517 | 152 | -59.2 | |||
| 2025-11-05T12:12 | 13761 | 146 | 255 | 47 | ||
| 2025-11-05T12:12 | 13844 | 145 | -59.0 | |||
| 2025-11-05T12:12 | 13909 | 143 | 257 | 44 | ||
| 2025-11-05T12:13 | 14220 | 136 | 253 | 40 | ||
| 2025-11-05T12:14 | 14299 | 134 | -58.7 | |||
| 2025-11-05T12:14 | 14532 | 129 | 250 | 42 | ||
| 2025-11-05T12:15 | 14668 | 127 | -58.1 | |||
| 2025-11-05T12:15 | 14850 | 123 | 257 | 42 | ||
| 2025-11-05T12:16 | 15075 | 119 | -58.7 | |||
| 2025-11-05T12:16 | 15180 | 117 | 258 | 40 | ||
| 2025-11-05T12:17 | 15517 | 111 | 258 | 39 | ||
| 2025-11-05T12:17 | 15534 | 110 | -59.3 | |||
| 2025-11-05T12:18 | 15840 | 105 | 262 | 40 | ||
| 2025-11-05T12:19 | 16148 | 100 | -59.3 | |||
| 2025-11-05T12:19 | 16159 | 100 | 259 | 33 | ||
| 2025-11-05T12:20 | 16374 | 97 | -58.2 | |||
| 2025-11-05T12:20 | 16480 | 95 | 263 | 35 | ||
| 2025-11-05T12:21 | 16739 | 91 | -56.4 | |||
| 2025-11-05T12:21 | 16823 | 90 | 264 | 34 | ||
| 2025-11-05T12:22 | 17023 | 87 | 269 | 32 | ||
| 2025-11-05T12:22 | 17143 | 86 | -56.2 | |||
| 2025-11-05T12:23 | 17271 | 84 | 266 | 27 | ||
| 2025-11-05T12:23 | 17469 | 81 | 266 | 30 | ||
| 2025-11-05T12:23 | 17642 | 79 | 272 | 29 | ||
| 2025-11-05T12:24 | 17791 | 77 | -55.5 | |||
| 2025-11-05T12:24 | 17889 | 76 | 275 | 20 | ||
| 2025-11-05T12:25 | 18111 | 73 | 254 | 17 | ||
| 2025-11-05T12:25 | 18366 | 71 | -58.0 | |||
| 2025-11-05T12:26 | 18475 | 69 | 257 | 27 | ||
| 2025-11-05T12:27 | 18757 | 66 | -53.9 | |||
| 2025-11-05T12:27 | 18796 | 66 | 256 | 25 | ||
| 2025-11-05T12:28 | 19136 | 63 | 260 | 23 | ||
| 2025-11-05T12:29 | 19473 | 59 | 248 | 21 | ||
| 2025-11-05T12:29 | 19595 | 58 | -53.3 | |||
| 2025-11-05T12:29 | 19763 | 57 | -53.0 | |||
| 2025-11-05T12:30 | 19878 | 56 | 258 | 19 | ||
| 2025-11-05T12:31 | 20278 | 52 | 254 | 19 | ||
| 2025-11-05T12:31 | 20413 | 51 | -55.6 | |||
| 2025-11-05T12:31 | 20481 | 51 | 262 | 17 | ||
| 2025-11-05T12:32 | 20634 | 50 | -55.6 | |||
| 2025-11-05T12:32 | 20790 | 48 | 266 | 13 | ||
| 2025-11-05T12:33 | 21030 | 47 | 277 | 12 | ||
| 2025-11-05T12:34 | 21365 | 44 | 241 | 12 | ||
| 2025-11-05T12:34 | 21675 | 42 | -56.3 | |||
| 2025-11-05T12:35 | 21737 | 42 | 226 | 25 | ||
| 2025-11-05T12:35 | 21800 | 41 | -54.5 | |||
| 2025-11-05T12:35 | 21971 | 40 | 236 | 25 | ||
| 2025-11-05T12:36 | 22217 | 39 | 243 | 29 | ||
| 2025-11-05T12:36 | 22267 | 38 | -52.8 | |||
| 2025-11-05T12:37 | 22596 | 36 | 252 | 12 | ||
| 2025-11-05T12:38 | 22889 | 35 | 222 | 14 | ||
| 2025-11-05T12:38 | 23215 | 33 | 242 | 17 | ||
| 2025-11-05T12:39 | 23336 | 33 | -50.5 | |||
| 2025-11-05T12:39 | 23660 | 31 | 266 | 18 | ||
| 2025-11-05T12:40 | 23938 | 30 | 272 | 12 | ||
| 2025-11-05T12:40 | 24074 | 29 | 277 | 17 | ||
| 2025-11-05T12:41 | 24256 | 28 | -52.0 | 269 | 11 | |
| 2025-11-05T23:30 | 18 | 1021 | 6.9 | 2.8 | 110 | 1 |
| 2025-11-05T23:30 | 22 | 1020 | 6.5 | 2.0 | 0 | 0 |
| 2025-11-05T23:30 | 30 | 1019 | 6.0 | 1.5 | ||
| 2025-11-05T23:31 | 174 | 1002 | 5.4 | 1.1 | ||
| 2025-11-05T23:31 | 212 | 997 | 7.4 | 1.3 | ||
| 2025-11-05T23:31 | 229 | 995 | 168 | 3 | ||
| 2025-11-05T23:31 | 448 | 969 | 5.7 | 0.9 | ||
| 2025-11-05T23:31 | 483 | 964 | 148 | 3 | ||
| 2025-11-05T23:32 | 530 | 959 | 5.5 | 0.1 | ||
| 2025-11-05T23:32 | 600 | 951 | 158 | 4 | ||
| 2025-11-05T23:32 | 732 | 936 | 4.1 | -1.1 | ||
| 2025-11-05T23:33 | 910 | 915 | 174 | 4 | ||
| 2025-11-05T23:33 | 956 | 910 | 3.5 | -5.7 | ||
| 2025-11-05T23:33 | 1104 | 894 | 212 | 5 | ||
| 2025-11-05T23:33 | 1110 | 893 | 2.5 | -7.4 | ||
| 2025-11-05T23:33 | 1211 | 882 | 3.1 | -15.5 | ||
| 2025-11-05T23:34 | 1284 | 874 | 258 | 7 | ||
| 2025-11-05T23:34 | 1420 | 859 | 2.1 | -14.5 | ||
| 2025-11-05T23:34 | 1489 | 852 | 2.9 | -21.2 | ||
| 2025-11-05T23:34 | 1495 | 852 | 253 | 9 | ||
| 2025-11-05T23:35 | 1620 | 839 | 240 | 6 | ||
| 2025-11-05T23:35 | 1639 | 837 | 1.6 | -10.6 | ||
| 2025-11-05T23:35 | 1702 | 830 | 1.4 | -13.1 | ||
| 2025-11-05T23:35 | 1894 | 811 | 0.1 | -14.3 | ||
| 2025-11-05T23:35 | 1943 | 806 | 243 | 10 | ||
| 2025-11-05T23:36 | 2040 | 796 | -1.2 | -9.8 | ||
| 2025-11-05T23:36 | 2176 | 782 | -1.9 | -11.5 | ||
| 2025-11-05T23:36 | 2302 | 770 | 244 | 13 | ||
| 2025-11-05T23:37 | 2406 | 760 | -3.6 | -12.8 | ||
| 2025-11-05T23:37 | 2670 | 735 | 237 | 14 | ||
| 2025-11-05T23:38 | 2737 | 729 | -6.4 | -14.6 | ||
| 2025-11-05T23:38 | 2817 | 721 | -6.1 | -22.1 | ||
| 2025-11-05T23:38 | 3031 | 702 | 248 | 11 | ||
| 2025-11-05T23:39 | 3119 | 694 | -7.0 | -30.1 | ||
| 2025-11-05T23:39 | 3195 | 687 | 255 | 12 | ||
| 2025-11-05T23:40 | 3431 | 666 | 246 | 14 | ||
| 2025-11-05T23:40 | 3480 | 662 | -8.0 | -35.4 | ||
| 2025-11-05T23:40 | 3577 | 654 | -8.3 | -25.3 | ||
| 2025-11-05T23:40 | 3645 | 648 | -8.8 | -31.5 | ||
| 2025-11-05T23:40 | 3681 | 645 | -8.9 | -36.1 | ||
| 2025-11-05T23:41 | 3797 | 636 | 252 | 17 | ||
| 2025-11-05T23:41 | 3815 | 634 | -10.0 | -21.3 | ||
| 2025-11-05T23:41 | 3983 | 620 | -11.4 | -25.9 | ||
| 2025-11-05T23:42 | 4142 | 608 | 260 | 17 | ||
| 2025-11-05T23:42 | 4263 | 598 | -13.3 | -32.6 | ||
| 2025-11-05T23:43 | 4490 | 580 | 250 | 19 | ||
| 2025-11-05T23:43 | 4701 | 564 | -16.6 | -35.4 | ||
| 2025-11-05T23:44 | 4845 | 554 | 249 | 20 | ||
| 2025-11-05T23:44 | 4918 | 548 | -17.6 | -42.9 | ||
| 2025-11-05T23:44 | 5137 | 532 | -19.0 | -38.6 | ||
| 2025-11-05T23:44 | 5156 | 531 | 252 | 22 | ||
| 2025-11-05T23:45 | 5429 | 512 | -21.3 | -37.4 | ||
| 2025-11-05T23:45 | 5540 | 504 | 250 | 22 | ||
| 2025-11-05T23:46 | 5711 | 492 | -23.8 | -39.1 | ||
| 2025-11-05T23:46 | 5861 | 482 | 249 | 25 | ||
| 2025-11-05T23:46 | 5884 | 481 | -24.3 | -46.5 | ||
| 2025-11-05T23:47 | 6124 | 465 | 256 | 28 | ||
| 2025-11-05T23:47 | 6165 | 463 | -25.8 | -49.4 | ||
| 2025-11-05T23:48 | 6475 | 443 | 255 | 29 | ||
| 2025-11-05T23:49 | 6743 | 427 | 256 | 30 | ||
| 2025-11-05T23:49 | 6789 | 424 | -30.3 | -47.5 | ||
| 2025-11-05T23:50 | 7100 | 406 | 249 | 31 | ||
| 2025-11-05T23:50 | 7282 | 395 | -33.8 | -52.1 | ||
| 2025-11-05T23:51 | 7461 | 385 | 249 | 32 | ||
| 2025-11-05T23:52 | 7834 | 365 | 248 | 34 | ||
| 2025-11-05T23:52 | 7988 | 357 | -38.9 | -52.6 | ||
| 2025-11-05T23:53 | 8111 | 351 | -40.0 | -52.2 | ||
| 2025-11-05T23:53 | 8205 | 346 | 248 | 34 | ||
| 2025-11-05T23:54 | 8542 | 329 | 250 | 34 | ||
| 2025-11-05T23:54 | 8662 | 323 | -44.7 | |||
| 2025-11-05T23:55 | 8879 | 313 | 246 | 33 | ||
| 2025-11-05T23:56 | 9197 | 298 | 245 | 35 | ||
| 2025-11-05T23:56 | 9203 | 298 | -49.0 | |||
| 2025-11-05T23:57 | 9472 | 286 | -50.5 | |||
| 2025-11-05T23:57 | 9516 | 284 | 240 | 37 | ||
| 2025-11-05T23:58 | 9832 | 271 | 243 | 38 | ||
| 2025-11-05T23:58 | 9898 | 268 | -51.7 | |||
| 2025-11-05T23:59 | 10086 | 260 | -51.1 | |||
| 2025-11-05T23:59 | 10127 | 259 | 239 | 41 | ||
| 2025-11-05T23:59 | 10337 | 250 | 236 | 42 | ||
| 2025-11-06T00:00 | 10666 | 238 | 231 | 46 | ||
| 2025-11-06T00:01 | 10697 | 237 | -53.4 | |||
| 2025-11-06T00:01 | 10988 | 226 | 230 | 49 | ||
| 2025-11-06T00:02 | 11044 | 224 | -54.5 | |||
| 2025-11-06T00:02 | 11329 | 214 | 235 | 45 | ||
| 2025-11-06T00:03 | 11501 | 209 | -56.7 | |||
| 2025-11-06T00:03 | 11665 | 203 | 236 | 47 | ||
| 2025-11-06T00:04 | 11703 | 202 | -56.3 | |||
| 2025-11-06T00:04 | 11839 | 198 | 236 | 51 | ||
| 2025-11-06T00:04 | 12024 | 192 | -55.9 | |||
| 2025-11-06T00:05 | 12053 | 191 | 240 | 48 | ||
| 2025-11-06T00:05 | 12365 | 182 | -57.0 | |||
| 2025-11-06T00:06 | 12398 | 181 | 241 | 49 | ||
| 2025-11-06T00:07 | 12704 | 172 | -58.1 | |||
| 2025-11-06T00:07 | 12720 | 172 | 235 | 43 | ||
| 2025-11-06T00:07 | 12812 | 170 | -57.5 | |||
| 2025-11-06T00:08 | 13051 | 163 | 236 | 48 | ||
| 2025-11-06T00:08 | 13122 | 161 | -59.7 | |||
| 2025-11-06T00:08 | 13229 | 159 | -57.4 | |||
| 2025-11-06T00:09 | 13391 | 155 | 244 | 43 | ||
| 2025-11-06T00:09 | 13666 | 148 | 248 | 48 | ||
| 2025-11-06T00:10 | 13773 | 146 | -58.0 | |||
| 2025-11-06T00:10 | 13937 | 142 | 256 | 43 | ||
| 2025-11-06T00:11 | 14268 | 135 | 260 | 37 | ||
| 2025-11-06T00:11 | 14368 | 132 | -58.8 | |||
| 2025-11-06T00:12 | 14602 | 128 | 253 | 38 | ||
| 2025-11-06T00:12 | 14700 | 126 | -58.8 | |||
| 2025-11-06T00:13 | 14930 | 121 | 257 | 41 | ||
| 2025-11-06T00:14 | 15147 | 117 | -57.7 | |||
| 2025-11-06T00:14 | 15226 | 116 | 258 | 40 | ||
| 2025-11-06T00:15 | 15560 | 110 | 256 | 38 | ||
| 2025-11-06T00:15 | 15603 | 109 | -58.1 | |||
| 2025-11-06T00:16 | 15808 | 105 | 257 | 44 | ||
| 2025-11-06T00:16 | 16024 | 102 | -57.2 | |||
| 2025-11-06T00:17 | 16166 | 100 | 262 | 36 | ||
| 2025-11-06T00:18 | 16520 | 94 | 267 | 36 | ||
| 2025-11-06T00:18 | 16581 | 93 | -57.8 | |||
| 2025-11-06T00:18 | 16787 | 90 | -58.7 | |||
| 2025-11-06T00:19 | 16892 | 89 | 262 | 30 | ||
| 2025-11-06T00:20 | 17247 | 84 | 248 | 32 | ||
| 2025-11-06T00:20 | 17437 | 81 | -58.2 | |||
| 2025-11-06T00:20 | 17534 | 80 | 254 | 34 | ||
| 2025-11-06T00:22 | 17898 | 76 | 256 | 33 | ||
| 2025-11-06T00:22 | 18081 | 73 | -59.0 | |||
| 2025-11-06T00:22 | 18108 | 73 | 259 | 34 | ||
| 2025-11-06T00:23 | 18281 | 71 | -58.9 | |||
| 2025-11-06T00:23 | 18464 | 69 | 262 | 35 | ||
| 2025-11-06T00:23 | 18491 | 69 | -57.1 | |||
| 2025-11-06T00:24 | 18659 | 67 | 273 | 35 | ||
| 2025-11-06T00:25 | 19030 | 63 | 282 | 28 | ||
| 2025-11-06T00:25 | 19090 | 63 | -54.1 | |||
| 2025-11-06T00:25 | 19256 | 61 | 285 | 25 | ||
| 2025-11-06T00:26 | 19580 | 58 | 291 | 21 | ||
| 2025-11-06T00:27 | 19859 | 56 | -55.4 | |||
| 2025-11-06T00:27 | 19882 | 55 | 269 | 17 | ||
| 2025-11-06T00:28 | 20202 | 53 | 269 | 16 | ||
| 2025-11-06T00:28 | 20335 | 52 | -56.7 | |||
| 2025-11-06T00:29 | 20512 | 50 | -56.8 | |||
| 2025-11-06T00:29 | 20547 | 50 | 269 | 18 | ||
| 2025-11-06T00:30 | 20785 | 48 | 259 | 13 | ||
| 2025-11-06T00:30 | 21065 | 46 | -56.8 | |||
| 2025-11-06T00:30 | 21105 | 46 | 224 | 14 | ||
| 2025-11-06T00:31 | 21431 | 43 | 243 | 18 | ||
| 2025-11-06T00:32 | 21596 | 42 | -57.8 | |||
| 2025-11-06T00:32 | 21717 | 41 | -55.0 | |||
| 2025-11-06T00:32 | 21748 | 41 | 275 | 20 | ||
| 2025-11-06T00:33 | 21967 | 40 | 275 | 14 | ||
| 2025-11-06T00:33 | 22197 | 38 | 278 | 12 | ||
| 2025-11-06T00:33 | 22317 | 38 | -52.5 | |||
| 2025-11-06T00:34 | 22350 | 38 | 288 | 15 | ||
| 2025-11-06T00:34 | 22649 | 36 | 255 | 15 | ||
| 2025-11-06T00:35 | 22777 | 35 | -52.9 | |||
| 2025-11-06T00:35 | 22798 | 35 | 253 | 18 | ||
| 2025-11-06T00:35 | 22939 | 34 | -52.9 | 269 | 14 | |
| 2025-11-06T11:30 | 18 | 1013 | 9.9 | 4.7 | 310 | 2 |
| 2025-11-06T11:30 | 22 | 1012 | 9.7 | 4.3 | 0 | 0 |
| 2025-11-06T11:30 | 70 | 1006 | 9.8 | 3.3 | ||
| 2025-11-06T11:30 | 139 | 998 | 10.2 | 2.1 | ||
| 2025-11-06T11:30 | 145 | 997 | 324 | 3 | ||
| 2025-11-06T11:31 | 439 | 963 | 315 | 4 | ||
| 2025-11-06T11:32 | 736 | 928 | 317 | 5 | ||
| 2025-11-06T11:33 | 1113 | 886 | 328 | 5 | ||
| 2025-11-06T11:33 | 1167 | 880 | 0.5 | 0.1 | ||
| 2025-11-06T11:33 | 1218 | 875 | 342 | 4 | ||
| 2025-11-06T11:33 | 1343 | 861 | 296 | 7 | ||
| 2025-11-06T11:34 | 1518 | 842 | 278 | 8 | ||
| 2025-11-06T11:34 | 1538 | 840 | -1.1 | -1.7 | ||
| 2025-11-06T11:35 | 1784 | 815 | 275 | 14 | ||
| 2025-11-06T11:35 | 1904 | 803 | 275 | 15 | ||
| 2025-11-06T11:35 | 2004 | 792 | 271 | 19 | ||
| 2025-11-06T11:36 | 2326 | 761 | 272 | 19 | ||
| 2025-11-06T11:37 | 2660 | 729 | 273 | 17 | ||
| 2025-11-06T11:37 | 2762 | 719 | -7.7 | -9.1 | ||
| 2025-11-06T11:38 | 3004 | 697 | 274 | 18 | ||
| 2025-11-06T11:39 | 3339 | 668 | 276 | 18 | ||
| 2025-11-06T11:39 | 3378 | 664 | -11.3 | -12.9 | ||
| 2025-11-06T11:40 | 3655 | 641 | 275 | 18 | ||
| 2025-11-06T11:41 | 3824 | 627 | -15.4 | -17.5 | ||
| 2025-11-06T11:41 | 3878 | 622 | -15.9 | -21.3 | ||
| 2025-11-06T11:41 | 3912 | 619 | -16.2 | -22.8 | ||
| 2025-11-06T11:41 | 3981 | 613 | 270 | 23 | ||
| 2025-11-06T11:41 | 3987 | 613 | -16.9 | -24.4 | ||
| 2025-11-06T11:41 | 4040 | 609 | -17.3 | -25.9 | ||
| 2025-11-06T11:42 | 4230 | 593 | -19.1 | -28.1 | ||
| 2025-11-06T11:42 | 4314 | 587 | -19.8 | -29.2 | ||
| 2025-11-06T11:42 | 4338 | 585 | 277 | 24 | ||
| 2025-11-06T11:43 | 4600 | 564 | -21.9 | -31.6 | ||
| 2025-11-06T11:43 | 4684 | 558 | 287 | 27 | ||
| 2025-11-06T11:43 | 4701 | 557 | -22.3 | -31.7 | ||
| 2025-11-06T11:44 | 5026 | 533 | 278 | 29 | ||
| 2025-11-06T11:44 | 5077 | 529 | -24.2 | -34.5 | ||
| 2025-11-06T11:45 | 5366 | 508 | 273 | 28 | ||
| 2025-11-06T11:46 | 5691 | 486 | -28.3 | -39.9 | ||
| 2025-11-06T11:46 | 5715 | 484 | 265 | 29 | ||
| 2025-11-06T11:46 | 5802 | 478 | -29.2 | -40.7 | ||
| 2025-11-06T11:47 | 5959 | 468 | -30.5 | -41.0 | ||
| 2025-11-06T11:47 | 6089 | 459 | 263 | 31 | ||
| 2025-11-06T11:48 | 6476 | 435 | 261 | 29 | ||
| 2025-11-06T11:49 | 6831 | 413 | -37.8 | -47.6 | ||
| 2025-11-06T11:49 | 6869 | 411 | 264 | 29 | ||
| 2025-11-06T11:50 | 7082 | 398 | -40.0 | -48.9 | ||
| 2025-11-06T11:50 | 7240 | 389 | 270 | 30 | ||
| 2025-11-06T11:51 | 7539 | 372 | -43.4 | |||
| 2025-11-06T11:51 | 7598 | 369 | 274 | 30 | ||
| 2025-11-06T11:52 | 7726 | 362 | -44.0 | |||
| 2025-11-06T11:52 | 7941 | 351 | 267 | 30 | ||
| 2025-11-06T11:52 | 8024 | 346 | -45.4 | |||
| 2025-11-06T11:53 | 8282 | 333 | 271 | 32 | ||
| 2025-11-06T11:53 | 8324 | 331 | -46.6 | |||
| 2025-11-06T11:54 | 8649 | 315 | -47.8 | 270 | 30 | |
| 2025-11-06T11:55 | 8896 | 304 | -48.7 | |||
| 2025-11-06T11:55 | 9032 | 297 | 265 | 29 | ||
| 2025-11-06T11:56 | 9415 | 280 | 264 | 32 | ||
| 2025-11-06T11:56 | 9480 | 278 | -49.7 | |||
| 2025-11-06T11:57 | 9671 | 270 | -49.8 | |||
| 2025-11-06T11:57 | 9731 | 267 | 247 | 35 | ||
| 2025-11-06T11:57 | 9853 | 262 | -49.9 | |||
| 2025-11-06T11:58 | 10060 | 254 | 248 | 42 | ||
| 2025-11-06T11:58 | 10111 | 252 | -50.1 | |||
| 2025-11-06T11:59 | 10330 | 244 | 258 | 42 | ||
| 2025-11-06T11:59 | 10464 | 239 | -48.0 | |||
| 2025-11-06T11:59 | 10650 | 232 | -47.0 | |||
| 2025-11-06T11:59 | 10668 | 232 | 253 | 32 | ||
| 2025-11-06T12:00 | 10830 | 226 | 249 | 35 | ||
| 2025-11-06T12:01 | 11053 | 219 | -46.7 | |||
| 2025-11-06T12:01 | 11154 | 215 | 237 | 29 | ||
| 2025-11-06T12:01 | 11317 | 210 | 225 | 32 | ||
| 2025-11-06T12:01 | 11430 | 206 | -48.2 | |||
| 2025-11-06T12:02 | 11712 | 198 | 226 | 36 | ||
| 2025-11-06T12:03 | 11921 | 192 | -51.6 | |||
| 2025-11-06T12:03 | 12014 | 189 | 238 | 39 | ||
| 2025-11-06T12:04 | 12332 | 180 | 239 | 35 | ||
| 2025-11-06T12:04 | 12490 | 175 | 241 | 39 | ||
| 2025-11-06T12:04 | 12512 | 175 | -51.4 | |||
| 2025-11-06T12:05 | 12818 | 167 | 247 | 40 | ||
| 2025-11-06T12:05 | 12870 | 165 | -50.7 | |||
| 2025-11-06T12:06 | 13174 | 158 | 244 | 39 | ||
| 2025-11-06T12:07 | 13253 | 156 | -51.1 | |||
| 2025-11-06T12:07 | 13445 | 151 | -52.0 | |||
| 2025-11-06T12:07 | 13486 | 151 | 247 | 45 | ||
| 2025-11-06T12:08 | 13763 | 144 | -51.3 | |||
| 2025-11-06T12:08 | 13779 | 144 | 251 | 45 | ||
| 2025-11-06T12:08 | 13860 | 142 | -50.8 | |||
| 2025-11-06T12:09 | 14028 | 138 | -51.5 | |||
| 2025-11-06T12:09 | 14060 | 138 | 253 | 51 | ||
| 2025-11-06T12:09 | 14142 | 136 | -50.5 | |||
| 2025-11-06T12:10 | 14282 | 133 | 256 | 46 | ||
| 2025-11-06T12:10 | 14336 | 132 | -50.5 | |||
| 2025-11-06T12:10 | 14445 | 130 | -50.4 | |||
| 2025-11-06T12:11 | 14610 | 127 | -50.0 | 257 | 46 | |
| 2025-11-06T12:11 | 14795 | 123 | -49.8 | |||
| 2025-11-06T12:12 | 14947 | 120 | 258 | 42 | ||
| 2025-11-06T12:13 | 15297 | 114 | 252 | 35 | ||
| 2025-11-06T12:13 | 15484 | 111 | -50.4 | |||
| 2025-11-06T12:14 | 15712 | 107 | 233 | 34 | ||
| 2025-11-06T12:14 | 15774 | 106 | -51.2 | |||
| 2025-11-06T12:15 | 16069 | 101 | 232 | 37 | ||
| 2025-11-06T12:15 | 16223 | 99 | -53.7 | |||
| 2025-11-06T12:16 | 16389 | 96 | 246 | 37 | ||
| 2025-11-06T12:17 | 16725 | 91 | 246 | 35 | ||
| 2025-11-06T12:17 | 16917 | 89 | 245 | 37 | ||
| 2025-11-06T12:18 | 17041 | 87 | -55.3 | |||
| 2025-11-06T12:18 | 17232 | 84 | 236 | 37 | ||
| 2025-11-06T12:19 | 17363 | 83 | -56.3 | |||
| 2025-11-06T12:19 | 17533 | 81 | 248 | 36 | ||
| 2025-11-06T12:20 | 17865 | 76 | 258 | 36 | ||
| 2025-11-06T12:21 | 18132 | 73 | -58.5 | |||
| 2025-11-06T12:21 | 18263 | 72 | 263 | 35 | ||
| 2025-11-06T12:22 | 18693 | 67 | 271 | 32 | ||
| 2025-11-06T12:23 | 18890 | 65 | -63.2 | |||
| 2025-11-06T12:23 | 19085 | 63 | 282 | 27 | ||
| 2025-11-06T12:24 | 19244 | 61 | -63.1 | |||
| 2025-11-06T12:24 | 19426 | 59 | 277 | 25 | ||
| 2025-11-06T12:25 | 19646 | 57 | -64.7 | |||
| 2025-11-06T12:25 | 19724 | 57 | 280 | 21 | ||
| 2025-11-06T12:26 | 19764 | 56 | -62.0 | |||
| 2025-11-06T12:26 | 19934 | 55 | -57.9 | |||
| 2025-11-06T12:26 | 19979 | 54 | 229 | 21 | ||
| 2025-11-06T12:27 | 20329 | 51 | 247 | 26 | ||
| 2025-11-06T12:27 | 20437 | 51 | -58.6 | |||
| 2025-11-06T12:28 | 20466 | 50 | -58.9 | 249 | 27 | |
| 2025-11-06T23:30 | 18 | 1011 | 5.6 | 2.8 | 320 | 6 |
| 2025-11-06T23:30 | 27 | 1010 | 5.9 | 3.1 | 318 | 1 |
| 2025-11-06T23:30 | 77 | 1004 | 267 | 3 | ||
| 2025-11-06T23:30 | 93 | 1002 | 312 | 4 | ||
| 2025-11-06T23:30 | 120 | 999 | 4.8 | 1.5 | ||
| 2025-11-06T23:31 | 215 | 987 | 4.0 | 0.5 | ||
| 2025-11-06T23:31 | 252 | 982 | 4.1 | 0.1 | ||
| 2025-11-06T23:31 | 299 | 977 | 296 | 10 | ||
| 2025-11-06T23:31 | 388 | 966 | 3.1 | -0.7 | ||
| 2025-11-06T23:32 | 516 | 951 | 294 | 13 | ||
| 2025-11-06T23:32 | 756 | 923 | 0.4 | -3.5 | ||
| 2025-11-06T23:33 | 844 | 913 | 292 | 14 | ||
| 2025-11-06T23:34 | 1182 | 875 | 290 | 17 | ||
| 2025-11-06T23:34 | 1390 | 852 | -4.9 | -6.6 | ||
| 2025-11-06T23:34 | 1415 | 849 | 292 | 17 | ||
| 2025-11-06T23:35 | 1605 | 829 | -6.7 | -7.2 | ||
| 2025-11-06T23:35 | 1765 | 812 | 302 | 19 | ||
| 2025-11-06T23:36 | 1977 | 790 | -9.4 | -10.3 | ||
| 2025-11-06T23:36 | 2111 | 777 | 299 | 21 | ||
| 2025-11-06T23:36 | 2230 | 765 | -11.1 | -11.6 | ||
| 2025-11-06T23:37 | 2327 | 755 | -11.6 | -13.2 | ||
| 2025-11-06T23:37 | 2480 | 740 | 302 | 20 | ||
| 2025-11-06T23:37 | 2598 | 729 | -12.9 | -20.9 | ||
| 2025-11-06T23:38 | 2638 | 725 | -12.9 | -26.2 | ||
| 2025-11-06T23:38 | 2817 | 708 | 299 | 19 | ||
| 2025-11-06T23:39 | 2991 | 692 | -16.3 | -24.3 | ||
| 2025-11-06T23:39 | 3116 | 681 | 297 | 20 | ||
| 2025-11-06T23:39 | 3131 | 679 | -17.6 | -25.3 | ||
| 2025-11-06T23:40 | 3354 | 659 | -19.7 | -24.8 | ||
| 2025-11-06T23:40 | 3443 | 652 | 292 | 21 | ||
| 2025-11-06T23:40 | 3460 | 650 | -20.6 | -24.0 | ||
| 2025-11-06T23:41 | 3681 | 631 | 287 | 21 | ||
| 2025-11-06T23:41 | 3880 | 614 | -24.2 | -27.4 | ||
| 2025-11-06T23:42 | 4037 | 601 | 288 | 24 | ||
| 2025-11-06T23:42 | 4127 | 593 | -26.2 | -29.0 | ||
| 2025-11-06T23:42 | 4191 | 588 | 289 | 28 | ||
| 2025-11-06T23:43 | 4418 | 570 | -28.8 | -31.2 | ||
| 2025-11-06T23:43 | 4483 | 564 | -29.2 | -32.9 | ||
| 2025-11-06T23:43 | 4519 | 562 | 281 | 31 | ||
| 2025-11-06T23:43 | 4529 | 561 | -29.1 | -36.9 | ||
| 2025-11-06T23:43 | 4564 | 558 | -29.4 | -38.5 | ||
| 2025-11-06T23:44 | 4610 | 555 | -28.9 | -48.7 | ||
| 2025-11-06T23:44 | 4777 | 542 | -29.8 | -54.7 | ||
| 2025-11-06T23:44 | 4832 | 538 | -29.8 | -56.0 | ||
| 2025-11-06T23:44 | 4838 | 537 | 291 | 29 | ||
| 2025-11-06T23:45 | 5118 | 516 | 294 | 33 | ||
| 2025-11-06T23:45 | 5171 | 513 | -31.6 | -57.4 | ||
| 2025-11-06T23:46 | 5405 | 496 | 290 | 33 | ||
| 2025-11-06T23:47 | 5718 | 474 | 292 | 36 | ||
| 2025-11-06T23:47 | 5852 | 465 | 289 | 38 | ||
| 2025-11-06T23:48 | 6076 | 450 | -36.4 | -62.5 | ||
| 2025-11-06T23:48 | 6242 | 440 | 289 | 43 | ||
| 2025-11-06T23:48 | 6363 | 432 | -37.1 | -64.7 | ||
| 2025-11-06T23:49 | 6554 | 420 | 288 | 51 | ||
| 2025-11-06T23:49 | 6632 | 416 | -38.8 | -68.1 | ||
| 2025-11-06T23:49 | 6749 | 409 | 286 | 48 | ||
| 2025-11-06T23:49 | 6827 | 404 | -40.0 | -68.9 | ||
| 2025-11-06T23:50 | 6894 | 400 | -40.3 | |||
| 2025-11-06T23:50 | 6929 | 398 | 286 | 50 | ||
| 2025-11-06T23:50 | 6954 | 397 | -40.0 | |||
| 2025-11-06T23:50 | 7032 | 392 | 285 | 54 | ||
| 2025-11-06T23:51 | 7311 | 376 | -39.4 | |||
| 2025-11-06T23:51 | 7366 | 373 | 286 | 55 | ||
| 2025-11-06T23:52 | 7691 | 356 | 284 | 62 | ||
| 2025-11-06T23:52 | 7755 | 353 | -40.8 | |||
| 2025-11-06T23:53 | 7955 | 342 | 286 | 58 | ||
| 2025-11-06T23:53 | 8132 | 334 | 283 | 58 | ||
| 2025-11-06T23:53 | 8138 | 333 | -41.4 | |||
| 2025-11-06T23:54 | 8262 | 327 | 286 | 61 | ||
| 2025-11-06T23:54 | 8275 | 327 | -41.8 | |||
| 2025-11-06T23:55 | 8583 | 312 | 291 | 56 | ||
| 2025-11-06T23:55 | 8659 | 309 | -43.1 | |||
| 2025-11-06T23:55 | 8833 | 301 | 290 | 49 | ||
| 2025-11-06T23:55 | 8852 | 300 | -43.4 | |||
| 2025-11-06T23:56 | 8988 | 294 | 286 | 46 | ||
| 2025-11-06T23:56 | 9190 | 285 | -44.8 | 281 | 49 | |
| 2025-11-06T23:57 | 9464 | 274 | -44.8 | |||
| 2025-11-06T23:57 | 9541 | 271 | 283 | 48 | ||
| 2025-11-06T23:58 | 9907 | 256 | 281 | 50 | ||
| 2025-11-06T23:59 | 10030 | 251 | -47.7 | |||
| 2025-11-06T23:59 | 10253 | 243 | -47.7 | |||
| 2025-11-06T23:59 | 10286 | 242 | 281 | 43 | ||
| 2025-11-07T00:00 | 10668 | 228 | 275 | 43 | ||
| 2025-11-07T00:00 | 10759 | 225 | -47.7 | |||
| 2025-11-07T00:01 | 10915 | 220 | -46.6 | |||
| 2025-11-07T00:01 | 10979 | 218 | 275 | 40 | ||
| 2025-11-07T00:02 | 11101 | 214 | -46.2 | |||
| 2025-11-07T00:02 | 11158 | 212 | 272 | 42 | ||
| 2025-11-07T00:02 | 11189 | 211 | -45.1 | |||
| 2025-11-07T00:03 | 11426 | 204 | -45.8 | |||
| 2025-11-07T00:03 | 11503 | 201 | 278 | 38 | ||
| 2025-11-07T00:04 | 11841 | 191 | -45.1 | |||
| 2025-11-07T00:04 | 11898 | 190 | 273 | 35 | ||
| 2025-11-07T00:05 | 12230 | 181 | -45.7 | |||
| 2025-11-07T00:05 | 12339 | 178 | 269 | 28 | ||
| 2025-11-07T00:05 | 12355 | 177 | -45.6 | |||
| 2025-11-07T00:05 | 12501 | 173 | 260 | 26 | ||
| 2025-11-07T00:05 | 12534 | 172 | -46.2 | |||
| 2025-11-07T00:06 | 12974 | 161 | 251 | 29 | ||
| 2025-11-07T00:07 | 13372 | 152 | -52.0 | |||
| 2025-11-07T00:07 | 13396 | 151 | 254 | 35 | ||
| 2025-11-07T00:08 | 13598 | 147 | -51.0 | |||
| 2025-11-07T00:08 | 13688 | 145 | 252 | 34 | ||
| 2025-11-07T00:09 | 13935 | 139 | -52.1 | 247 | 33 | |
| 2025-11-07T00:10 | 14192 | 134 | 245 | 33 | ||
| 2025-11-07T00:10 | 14290 | 132 | -50.2 | |||
| 2025-11-07T00:11 | 14528 | 127 | 251 | 37 | ||
| 2025-11-07T00:12 | 14792 | 122 | -50.9 | |||
| 2025-11-07T00:12 | 14911 | 120 | 259 | 30 | ||
| 2025-11-07T00:13 | 15223 | 114 | -52.0 | |||
| 2025-11-07T00:13 | 15274 | 113 | 249 | 34 | ||
| 2025-11-07T00:13 | 15356 | 112 | -52.2 | |||
| 2025-11-07T00:14 | 15566 | 108 | 254 | 36 | ||
| 2025-11-07T00:14 | 15579 | 108 | -51.8 | |||
| 2025-11-07T00:15 | 15749 | 105 | -51.1 | |||
| 2025-11-07T00:15 | 15762 | 105 | 257 | 41 | ||
| 2025-11-07T00:15 | 15854 | 104 | -49.6 | |||
| 2025-11-07T00:16 | 15919 | 103 | 266 | 35 | ||
| 2025-11-07T00:16 | 16035 | 101 | -48.9 | |||
| 2025-11-07T00:16 | 16120 | 99 | 261 | 29 | ||
| 2025-11-07T00:17 | 16283 | 97 | 253 | 27 | ||
| 2025-11-07T00:17 | 16406 | 95 | -48.7 | |||
| 2025-11-07T00:18 | 16703 | 91 | 259 | 33 | ||
| 2025-11-07T00:18 | 16795 | 90 | -51.3 | |||
| 2025-11-07T00:18 | 16918 | 88 | 269 | 32 | ||
| 2025-11-07T00:19 | 17149 | 85 | 268 | 28 | ||
| 2025-11-07T00:19 | 17158 | 85 | -50.0 | |||
| 2025-11-07T00:20 | 17625 | 79 | 260 | 28 | ||
| 2025-11-07T00:20 | 17700 | 78 | -53.7 | |||
| 2025-11-07T00:21 | 18022 | 74 | 265 | 30 | ||
| 2025-11-07T00:21 | 18133 | 73 | -55.0 | |||
| 2025-11-07T00:22 | 18412 | 70 | -54.4 | 263 | 28 | |
| 2025-11-07T00:22 | 18601 | 68 | -53.1 | |||
| 2025-11-07T00:23 | 18851 | 65 | 252 | 31 | ||
| 2025-11-07T00:23 | 18909 | 65 | -54.7 | |||
| 2025-11-07T00:23 | 19062 | 63 | -54.2 | |||
| 2025-11-07T00:23 | 19143 | 62 | 243 | 28 | ||
| 2025-11-07T00:24 | 19381 | 60 | 240 | 32 | ||
| 2025-11-07T00:24 | 19502 | 59 | -55.6 | |||
| 2025-11-07T00:25 | 19720 | 57 | 252 | 27 | ||
| 2025-11-07T00:26 | 19903 | 55 | -53.8 | |||
| 2025-11-07T00:26 | 20032 | 54 | -53.1 | |||
| 2025-11-07T00:26 | 20045 | 54 | 262 | 21 | ||
| 2025-11-07T00:26 | 20237 | 53 | 280 | 8 | ||
| 2025-11-07T00:26 | 20252 | 52 | -52.3 | |||
| 2025-11-07T00:27 | 20547 | 50 | 260 | 3 | ||
| 2025-11-07T00:28 | 20761 | 48 | 270 | 1 | ||
| 2025-11-07T00:28 | 21078 | 46 | 176 | 3 | ||
| 2025-11-07T00:29 | 21249 | 45 | -59.4 | |||
| 2025-11-07T00:29 | 21489 | 43 | 224 | 14 | ||
| 2025-11-07T00:30 | 21737 | 41 | -60.3 | |||
| 2025-11-07T00:30 | 21890 | 40 | 224 | 20 | ||
| 2025-11-07T00:31 | 22014 | 40 | -60.3 | |||
| 2025-11-07T00:31 | 22177 | 39 | 238 | 26 | ||
| 2025-11-07T00:31 | 22305 | 38 | -57.7 | |||
| 2025-11-07T00:31 | 22410 | 37 | -54.0 | |||
| 2025-11-07T00:32 | 22621 | 36 | 253 | 26 | ||
| 2025-11-07T00:33 | 23049 | 34 | 260 | 24 | ||
| 2025-11-07T00:33 | 23221 | 33 | -50.7 | |||
| 2025-11-07T00:34 | 23360 | 32 | 258 | 21 | ||
| 2025-11-07T00:34 | 23374 | 32 | -48.3 | 260 | 21 | |
| 2025-11-07T11:30 | 18 | 1020 | 2.4 | 0.0 | 330 | 1 |
| 2025-11-07T11:30 | 23 | 1019 | 2.3 | -0.3 | 11 | 1 |
| 2025-11-07T11:31 | 292 | 986 | 0.2 | -2.8 | ||
| 2025-11-07T11:31 | 308 | 984 | 37 | 5 | ||
| 2025-11-07T11:31 | 427 | 969 | 21 | 5 | ||
| 2025-11-07T11:32 | 571 | 952 | -1.8 | -5.3 | ||
| 2025-11-07T11:32 | 576 | 951 | 356 | 8 | ||
| 2025-11-07T11:32 | 800 | 925 | 1 | 13 | ||
| 2025-11-07T11:33 | 1013 | 900 | -5.5 | -7.5 | ||
| 2025-11-07T11:33 | 1144 | 885 | 356 | 16 | ||
| 2025-11-07T11:34 | 1279 | 870 | -7.9 | -8.8 | ||
| 2025-11-07T11:34 | 1468 | 849 | 345 | 17 | ||
| 2025-11-07T11:35 | 1628 | 832 | -9.8 | -10.9 | ||
| 2025-11-07T11:35 | 1789 | 815 | 348 | 18 | ||
| 2025-11-07T11:36 | 2092 | 783 | 341 | 18 | ||
| 2025-11-07T11:37 | 2247 | 767 | 341 | 17 | ||
| 2025-11-07T11:37 | 2520 | 740 | 329 | 19 | ||
| 2025-11-07T11:38 | 2627 | 730 | 334 | 22 | ||
| 2025-11-07T11:38 | 2778 | 715 | 330 | 22 | ||
| 2025-11-07T11:38 | 2812 | 712 | -18.7 | -20.5 | ||
| 2025-11-07T11:39 | 2912 | 702 | 319 | 22 | ||
| 2025-11-07T11:39 | 3210 | 675 | 305 | 18 | ||
| 2025-11-07T11:39 | 3260 | 670 | -22.0 | -24.4 | ||
| 2025-11-07T11:40 | 3564 | 643 | 294 | 21 | ||
| 2025-11-07T11:41 | 3675 | 633 | -25.6 | -29.0 | ||
| 2025-11-07T11:41 | 3760 | 625 | 302 | 22 | ||
| 2025-11-07T11:41 | 3778 | 624 | -25.8 | -34.3 | ||
| 2025-11-07T11:41 | 3891 | 614 | 311 | 24 | ||
| 2025-11-07T11:41 | 3975 | 607 | -25.2 | -39.9 | ||
| 2025-11-07T11:42 | 4246 | 585 | 318 | 29 | ||
| 2025-11-07T11:43 | 4481 | 566 | -26.8 | -48.5 | ||
| 2025-11-07T11:43 | 4645 | 553 | 319 | 32 | ||
| 2025-11-07T11:43 | 4757 | 545 | -27.9 | -48.6 | ||
| 2025-11-07T11:44 | 4821 | 540 | 320 | 37 | ||
| 2025-11-07T11:44 | 4867 | 537 | -28.3 | -47.6 | ||
| 2025-11-07T11:44 | 5010 | 526 | 318 | 34 | ||
| 2025-11-07T11:45 | 5242 | 509 | 319 | 35 | ||
| 2025-11-07T11:45 | 5287 | 506 | -30.3 | -49.2 | ||
| 2025-11-07T11:45 | 5369 | 500 | 312 | 39 | ||
| 2025-11-07T11:45 | 5389 | 499 | -29.5 | -53.4 | ||
| 2025-11-07T11:46 | 5532 | 489 | 315 | 41 | ||
| 2025-11-07T11:47 | 5759 | 473 | -30.8 | -58.2 | ||
| 2025-11-07T11:47 | 5864 | 466 | 310 | 42 | ||
| 2025-11-07T11:48 | 6245 | 442 | 311 | 42 | ||
| 2025-11-07T11:49 | 6634 | 418 | 312 | 43 | ||
| 2025-11-07T11:49 | 6786 | 409 | -37.4 | -64.9 | ||
| 2025-11-07T11:50 | 7024 | 395 | 309 | 43 | ||
| 2025-11-07T11:50 | 7126 | 389 | -40.0 | -63.9 | ||
| 2025-11-07T11:51 | 7431 | 372 | 306 | 42 | ||
| 2025-11-07T11:51 | 7519 | 367 | -43.0 | |||
| 2025-11-07T11:52 | 7735 | 355 | 305 | 45 | ||
| 2025-11-07T11:52 | 7947 | 344 | -45.7 | |||
| 2025-11-07T11:52 | 8057 | 339 | 308 | 45 | ||
| 2025-11-07T11:53 | 8258 | 329 | -47.1 | |||
| 2025-11-07T11:53 | 8366 | 323 | 305 | 48 | ||
| 2025-11-07T11:54 | 8511 | 316 | 304 | 48 | ||
| 2025-11-07T11:54 | 8656 | 309 | 304 | 53 | ||
| 2025-11-07T11:54 | 8737 | 305 | -50.3 | |||
| 2025-11-07T11:54 | 8813 | 302 | 305 | 49 | ||
| 2025-11-07T11:54 | 8854 | 300 | -50.0 | |||
| 2025-11-07T11:55 | 8944 | 296 | 306 | 52 | ||
| 2025-11-07T11:55 | 9103 | 289 | -51.5 | |||
| 2025-11-07T11:55 | 9212 | 284 | -51.5 | |||
| 2025-11-07T11:55 | 9307 | 280 | 304 | 51 | ||
| 2025-11-07T11:56 | 9454 | 274 | -51.6 | |||
| 2025-11-07T11:56 | 9538 | 270 | -51.2 | |||
| 2025-11-07T11:56 | 9593 | 268 | 306 | 50 | ||
| 2025-11-07T11:56 | 9702 | 263 | -51.2 | |||
| 2025-11-07T11:57 | 9854 | 257 | 306 | 46 | ||
| 2025-11-07T11:57 | 9977 | 252 | 304 | 43 | ||
| 2025-11-07T11:57 | 10104 | 248 | -51.2 | |||
| 2025-11-07T11:58 | 10249 | 242 | -50.5 | |||
| 2025-11-07T11:58 | 10271 | 241 | 303 | 43 | ||
| 2025-11-07T11:58 | 10387 | 237 | -49.0 | |||
| 2025-11-07T11:58 | 10489 | 233 | -48.4 | |||
| 2025-11-07T11:59 | 10646 | 228 | 302 | 41 | ||
| 2025-11-07T11:59 | 10869 | 220 | -46.8 | |||
| 2025-11-07T11:59 | 10898 | 219 | 303 | 39 | ||
| 2025-11-07T12:00 | 11239 | 208 | 303 | 38 | ||
| 2025-11-07T12:01 | 11615 | 197 | 300 | 35 | ||
| 2025-11-07T12:02 | 11932 | 188 | -47.7 | |||
| 2025-11-07T12:02 | 12008 | 185 | 288 | 36 | ||
| 2025-11-07T12:03 | 12427 | 174 | 286 | 36 | ||
| 2025-11-07T12:04 | 12496 | 172 | -47.7 | |||
| 2025-11-07T12:04 | 12729 | 166 | 288 | 35 | ||
| 2025-11-07T12:04 | 12914 | 162 | -48.1 | |||
| 2025-11-07T12:05 | 13076 | 158 | 279 | 39 | ||
| 2025-11-07T12:05 | 13112 | 157 | -47.9 | |||
| 2025-11-07T12:06 | 13432 | 149 | 281 | 35 | ||
| 2025-11-07T12:06 | 13608 | 145 | -50.8 | |||
| 2025-11-07T12:07 | 13814 | 141 | 275 | 38 | ||
| 2025-11-07T12:07 | 13918 | 139 | -51.8 | |||
| 2025-11-07T12:08 | 14081 | 135 | 283 | 36 | ||
| 2025-11-07T12:08 | 14234 | 132 | 284 | 34 | ||
| 2025-11-07T12:09 | 14559 | 126 | -53.9 | |||
| 2025-11-07T12:09 | 14670 | 123 | -53.1 | |||
| 2025-11-07T12:09 | 14684 | 123 | 274 | 39 | ||
| 2025-11-07T12:10 | 14968 | 118 | -54.6 | |||
| 2025-11-07T12:10 | 15097 | 115 | 274 | 40 | ||
| 2025-11-07T12:10 | 15194 | 114 | -54.2 | |||
| 2025-11-07T12:10 | 15252 | 113 | 275 | 42 | ||
| 2025-11-07T12:11 | 15450 | 109 | -53.5 | |||
| 2025-11-07T12:11 | 15531 | 108 | -51.9 | |||
| 2025-11-07T12:11 | 15585 | 107 | 279 | 43 | ||
| 2025-11-07T12:12 | 15664 | 106 | -51.7 | |||
| 2025-11-07T12:12 | 15770 | 104 | 279 | 43 | ||
| 2025-11-07T12:12 | 15807 | 103 | -50.8 | |||
| 2025-11-07T12:13 | 16099 | 99 | 277 | 40 | ||
| 2025-11-07T12:13 | 16159 | 98 | -50.1 | |||
| 2025-11-07T12:13 | 16377 | 95 | 267 | 36 | ||
| 2025-11-07T12:14 | 16437 | 94 | -50.4 | |||
| 2025-11-07T12:14 | 16780 | 89 | 266 | 43 | ||
| 2025-11-07T12:15 | 16799 | 89 | -50.8 | |||
| 2025-11-07T12:15 | 16997 | 86 | -50.6 | |||
| 2025-11-07T12:15 | 17006 | 86 | 269 | 40 | ||
| 2025-11-07T12:16 | 17268 | 83 | -50.9 | 279 | 40 | |
| 2025-11-07T12:17 | 17639 | 78 | 285 | 43 | ||
| 2025-11-07T12:17 | 17737 | 77 | -53.1 | |||
| 2025-11-07T12:18 | 17978 | 74 | 289 | 36 | ||
| 2025-11-07T12:18 | 18174 | 72 | -51.9 | |||
| 2025-11-07T12:18 | 18328 | 70 | 279 | 32 | ||
| 2025-11-07T12:19 | 18502 | 68 | -53.5 | |||
| 2025-11-07T12:19 | 18580 | 67 | 280 | 31 | ||
| 2025-11-07T12:20 | 18778 | 65 | -50.1 | |||
| 2025-11-07T12:20 | 18899 | 64 | 289 | 22 |
Only the first 2000 rows were shown. To view the complete dataset, download it as tab-delimited text. You can still view the full matrix in your browser, but be aware that this may crash the browser due to the huge size.
